<?xml version="1.0" encoding="UTF-8" standalone="no" ?>
<gpx xmlns="http://www.topografix.com/GPX/1/1" xmlns:xsi="http://www.w3.org/2001/XMLSchema-instance" xsi:schemaLocation="http://www.topografix.com/GPX/1/1 http://www.topografix.com/GPX/1/1/gpx.xsd" version="1.1" creator="VisuGPX - https://www.visugpx.com">
  <metadata>
    <name>VTT - Grasse</name>
    <desc><![CDATA[VTT - relevé terrain Grasse]]></desc>
  </metadata>
  <trk>
    <name><![CDATA[2012-12-01T08:21:36Z]]></name>
    <trkseg>
      <trkpt lat="43.66808" lon="6.92238">
        <ele>566.299</ele>
        <time>2012-12-01T08:21:37Z</time>
      </trkpt>
      <trkpt lat="43.66806" lon="6.92239">
        <ele>566.485</ele>
        <time>2012-12-01T08:21:44Z</time>
      </trkpt>
      <trkpt lat="43.66804" lon="6.9224">
        <ele>564.335</ele>
        <time>2012-12-01T08:21:55Z</time>
      </trkpt>
      <trkpt lat="43.66798" lon="6.92233">
        <ele>562.974</ele>
        <time>2012-12-01T08:22:00Z</time>
      </trkpt>
      <trkpt lat="43.66788" lon="6.92213">
        <ele>563.495</ele>
        <time>2012-12-01T08:22:07Z</time>
      </trkpt>
      <trkpt lat="43.66778" lon="6.92195">
        <ele>562.834</ele>
        <time>2012-12-01T08:22:13Z</time>
      </trkpt>
      <trkpt lat="43.66772" lon="6.92178">
        <ele>561.773</ele>
        <time>2012-12-01T08:22:18Z</time>
      </trkpt>
      <trkpt lat="43.66765" lon="6.92165">
        <ele>560.673</ele>
        <time>2012-12-01T08:22:21Z</time>
      </trkpt>
      <trkpt lat="43.66757" lon="6.92158">
        <ele>560.785</ele>
        <time>2012-12-01T08:22:23Z</time>
      </trkpt>
      <trkpt lat="43.66743" lon="6.92133">
        <ele>559.606</ele>
        <time>2012-12-01T08:22:28Z</time>
      </trkpt>
      <trkpt lat="43.6673" lon="6.92098">
        <ele>560.267</ele>
        <time>2012-12-01T08:22:35Z</time>
      </trkpt>
      <trkpt lat="43.66718" lon="6.9205">
        <ele>563.498</ele>
        <time>2012-12-01T08:22:45Z</time>
      </trkpt>
      <trkpt lat="43.66712" lon="6.92015">
        <ele>564.596</ele>
        <time>2012-12-01T08:22:52Z</time>
      </trkpt>
      <trkpt lat="43.66707" lon="6.91971">
        <ele>565.706</ele>
        <time>2012-12-01T08:23:01Z</time>
      </trkpt>
      <trkpt lat="43.66704" lon="6.91924">
        <ele>567.457</ele>
        <time>2012-12-01T08:23:11Z</time>
      </trkpt>
      <trkpt lat="43.66708" lon="6.9188">
        <ele>568.776</ele>
        <time>2012-12-01T08:23:20Z</time>
      </trkpt>
      <trkpt lat="43.66714" lon="6.91832">
        <ele>569.846</ele>
        <time>2012-12-01T08:23:30Z</time>
      </trkpt>
      <trkpt lat="43.6672" lon="6.91796">
        <ele>569.956</ele>
        <time>2012-12-01T08:23:38Z</time>
      </trkpt>
      <trkpt lat="43.66725" lon="6.91766">
        <ele>570.205</ele>
        <time>2012-12-01T08:23:45Z</time>
      </trkpt>
      <trkpt lat="43.66733" lon="6.91725">
        <ele>571.194</ele>
        <time>2012-12-01T08:23:55Z</time>
      </trkpt>
      <trkpt lat="43.66743" lon="6.91689">
        <ele>572.935</ele>
        <time>2012-12-01T08:24:04Z</time>
      </trkpt>
      <trkpt lat="43.66752" lon="6.91655">
        <ele>575.175</ele>
        <time>2012-12-01T08:24:13Z</time>
      </trkpt>
      <trkpt lat="43.66762" lon="6.9163">
        <ele>574.905</ele>
        <time>2012-12-01T08:24:20Z</time>
      </trkpt>
      <trkpt lat="43.66776" lon="6.91595">
        <ele>575.865</ele>
        <time>2012-12-01T08:24:30Z</time>
      </trkpt>
      <trkpt lat="43.6679" lon="6.91563">
        <ele>576.335</ele>
        <time>2012-12-01T08:24:39Z</time>
      </trkpt>
      <trkpt lat="43.66805" lon="6.91532">
        <ele>577.155</ele>
        <time>2012-12-01T08:24:48Z</time>
      </trkpt>
      <trkpt lat="43.66816" lon="6.91505">
        <ele>578.805</ele>
        <time>2012-12-01T08:24:56Z</time>
      </trkpt>
      <trkpt lat="43.66826" lon="6.91481">
        <ele>580.755</ele>
        <time>2012-12-01T08:25:03Z</time>
      </trkpt>
      <trkpt lat="43.66835" lon="6.91456">
        <ele>583.515</ele>
        <time>2012-12-01T08:25:10Z</time>
      </trkpt>
      <trkpt lat="43.66841" lon="6.91434">
        <ele>585.045</ele>
        <time>2012-12-01T08:25:16Z</time>
      </trkpt>
      <trkpt lat="43.66849" lon="6.91402">
        <ele>586.035</ele>
        <time>2012-12-01T08:25:24Z</time>
      </trkpt>
      <trkpt lat="43.66859" lon="6.91361">
        <ele>587.785</ele>
        <time>2012-12-01T08:25:34Z</time>
      </trkpt>
      <trkpt lat="43.66869" lon="6.91325">
        <ele>589.055</ele>
        <time>2012-12-01T08:25:43Z</time>
      </trkpt>
      <trkpt lat="43.66876" lon="6.91296">
        <ele>589.924</ele>
        <time>2012-12-01T08:25:50Z</time>
      </trkpt>
      <trkpt lat="43.66882" lon="6.9127">
        <ele>590.342</ele>
        <time>2012-12-01T08:25:56Z</time>
      </trkpt>
      <trkpt lat="43.66894" lon="6.91236">
        <ele>592.205</ele>
        <time>2012-12-01T08:26:05Z</time>
      </trkpt>
      <trkpt lat="43.66905" lon="6.91213">
        <ele>593.004</ele>
        <time>2012-12-01T08:26:12Z</time>
      </trkpt>
      <trkpt lat="43.6691" lon="6.91203">
        <ele>593.584</ele>
        <time>2012-12-01T08:26:16Z</time>
      </trkpt>
      <trkpt lat="43.66914" lon="6.91201">
        <ele>594.302</ele>
        <time>2012-12-01T08:26:22Z</time>
      </trkpt>
      <trkpt lat="43.66914" lon="6.91202">
        <ele>594.201</ele>
        <time>2012-12-01T08:26:24Z</time>
      </trkpt>
      <trkpt lat="43.66921" lon="6.91207">
        <ele>595.304</ele>
        <time>2012-12-01T08:26:32Z</time>
      </trkpt>
      <trkpt lat="43.66927" lon="6.91203">
        <ele>597.003</ele>
        <time>2012-12-01T08:26:40Z</time>
      </trkpt>
      <trkpt lat="43.66929" lon="6.91202">
        <ele>596.812</ele>
        <time>2012-12-01T08:26:48Z</time>
      </trkpt>
      <trkpt lat="43.6693" lon="6.91202">
        <ele>596.793</ele>
        <time>2012-12-01T08:26:52Z</time>
      </trkpt>
      <trkpt lat="43.66934" lon="6.91201">
        <ele>597.513</ele>
        <time>2012-12-01T08:26:59Z</time>
      </trkpt>
      <trkpt lat="43.6694" lon="6.91198">
        <ele>598.792</ele>
        <time>2012-12-01T08:27:40Z</time>
      </trkpt>
      <trkpt lat="43.66952" lon="6.91201">
        <ele>601.664</ele>
        <time>2012-12-01T08:27:48Z</time>
      </trkpt>
      <trkpt lat="43.66969" lon="6.91204">
        <ele>602.514</ele>
        <time>2012-12-01T08:27:57Z</time>
      </trkpt>
      <trkpt lat="43.66979" lon="6.91207">
        <ele>604.195</ele>
        <time>2012-12-01T08:28:04Z</time>
      </trkpt>
      <trkpt lat="43.66979" lon="6.91215">
        <ele>605.835</ele>
        <time>2012-12-01T08:28:09Z</time>
      </trkpt>
      <trkpt lat="43.66973" lon="6.91219">
        <ele>607.495</ele>
        <time>2012-12-01T08:28:13Z</time>
      </trkpt>
      <trkpt lat="43.66968" lon="6.91223">
        <ele>608.497</ele>
        <time>2012-12-01T08:28:16Z</time>
      </trkpt>
      <trkpt lat="43.66956" lon="6.91238">
        <ele>610.116</ele>
        <time>2012-12-01T08:28:24Z</time>
      </trkpt>
      <trkpt lat="43.66951" lon="6.91262">
        <ele>608.893</ele>
        <time>2012-12-01T08:28:32Z</time>
      </trkpt>
      <trkpt lat="43.66949" lon="6.91283">
        <ele>608.464</ele>
        <time>2012-12-01T08:28:39Z</time>
      </trkpt>
      <trkpt lat="43.66948" lon="6.91303">
        <ele>609.084</ele>
        <time>2012-12-01T08:28:47Z</time>
      </trkpt>
      <trkpt lat="43.66946" lon="6.91326">
        <ele>610.705</ele>
        <time>2012-12-01T08:28:56Z</time>
      </trkpt>
      <trkpt lat="43.66947" lon="6.91344">
        <ele>611.864</ele>
        <time>2012-12-01T08:29:03Z</time>
      </trkpt>
      <trkpt lat="43.66947" lon="6.91367">
        <ele>613.744</ele>
        <time>2012-12-01T08:29:12Z</time>
      </trkpt>
      <trkpt lat="43.66948" lon="6.91392">
        <ele>615.464</ele>
        <time>2012-12-01T08:29:21Z</time>
      </trkpt>
      <trkpt lat="43.66947" lon="6.91414">
        <ele>617.675</ele>
        <time>2012-12-01T08:29:30Z</time>
      </trkpt>
      <trkpt lat="43.66948" lon="6.91432">
        <ele>618.414</ele>
        <time>2012-12-01T08:29:37Z</time>
      </trkpt>
      <trkpt lat="43.66949" lon="6.91454">
        <ele>619.384</ele>
        <time>2012-12-01T08:29:46Z</time>
      </trkpt>
      <trkpt lat="43.66949" lon="6.91481">
        <ele>621.064</ele>
        <time>2012-12-01T08:29:56Z</time>
      </trkpt>
      <trkpt lat="43.66951" lon="6.91503">
        <ele>622.804</ele>
        <time>2012-12-01T08:30:04Z</time>
      </trkpt>
      <trkpt lat="43.66953" lon="6.91526">
        <ele>624.914</ele>
        <time>2012-12-01T08:30:13Z</time>
      </trkpt>
      <trkpt lat="43.66958" lon="6.91547">
        <ele>625.564</ele>
        <time>2012-12-01T08:30:21Z</time>
      </trkpt>
      <trkpt lat="43.66965" lon="6.91568">
        <ele>627.594</ele>
        <time>2012-12-01T08:30:30Z</time>
      </trkpt>
      <trkpt lat="43.66966" lon="6.91573">
        <ele>627.714</ele>
        <time>2012-12-01T08:30:32Z</time>
      </trkpt>
      <trkpt lat="43.66972" lon="6.91592">
        <ele>627.914</ele>
        <time>2012-12-01T08:30:40Z</time>
      </trkpt>
      <trkpt lat="43.66979" lon="6.91606">
        <ele>628.524</ele>
        <time>2012-12-01T08:30:47Z</time>
      </trkpt>
      <trkpt lat="43.6699" lon="6.91621">
        <ele>629.544</ele>
        <time>2012-12-01T08:30:55Z</time>
      </trkpt>
      <trkpt lat="43.67004" lon="6.9164">
        <ele>631.334</ele>
        <time>2012-12-01T08:31:05Z</time>
      </trkpt>
      <trkpt lat="43.67014" lon="6.91658">
        <ele>633.945</ele>
        <time>2012-12-01T08:31:14Z</time>
      </trkpt>
      <trkpt lat="43.67024" lon="6.91679">
        <ele>635.794</ele>
        <time>2012-12-01T08:31:23Z</time>
      </trkpt>
      <trkpt lat="43.67028" lon="6.91696">
        <ele>636.594</ele>
        <time>2012-12-01T08:31:29Z</time>
      </trkpt>
      <trkpt lat="43.67031" lon="6.91716">
        <ele>636.644</ele>
        <time>2012-12-01T08:31:36Z</time>
      </trkpt>
      <trkpt lat="43.67032" lon="6.91739">
        <ele>637.865</ele>
        <time>2012-12-01T08:31:43Z</time>
      </trkpt>
      <trkpt lat="43.67032" lon="6.91764">
        <ele>638.925</ele>
        <time>2012-12-01T08:31:51Z</time>
      </trkpt>
      <trkpt lat="43.67031" lon="6.91779">
        <ele>639.184</ele>
        <time>2012-12-01T08:31:56Z</time>
      </trkpt>
      <trkpt lat="43.6703" lon="6.91796">
        <ele>639.905</ele>
        <time>2012-12-01T08:32:03Z</time>
      </trkpt>
      <trkpt lat="43.67029" lon="6.9182">
        <ele>641.365</ele>
        <time>2012-12-01T08:32:12Z</time>
      </trkpt>
      <trkpt lat="43.67029" lon="6.91841">
        <ele>642.035</ele>
        <time>2012-12-01T08:32:20Z</time>
      </trkpt>
      <trkpt lat="43.67029" lon="6.91859">
        <ele>642.535</ele>
        <time>2012-12-01T08:32:27Z</time>
      </trkpt>
      <trkpt lat="43.67029" lon="6.91883">
        <ele>644.305</ele>
        <time>2012-12-01T08:32:36Z</time>
      </trkpt>
      <trkpt lat="43.6703" lon="6.91903">
        <ele>645.245</ele>
        <time>2012-12-01T08:32:44Z</time>
      </trkpt>
      <trkpt lat="43.67032" lon="6.91925">
        <ele>648.115</ele>
        <time>2012-12-01T08:32:52Z</time>
      </trkpt>
      <trkpt lat="43.67035" lon="6.91943">
        <ele>649.235</ele>
        <time>2012-12-01T08:32:59Z</time>
      </trkpt>
      <trkpt lat="43.6704" lon="6.91966">
        <ele>650.095</ele>
        <time>2012-12-01T08:33:08Z</time>
      </trkpt>
      <trkpt lat="43.67044" lon="6.91989">
        <ele>651.725</ele>
        <time>2012-12-01T08:33:18Z</time>
      </trkpt>
      <trkpt lat="43.67047" lon="6.92008">
        <ele>653.996</ele>
        <time>2012-12-01T08:33:26Z</time>
      </trkpt>
      <trkpt lat="43.67051" lon="6.92027">
        <ele>654.975</ele>
        <time>2012-12-01T08:33:34Z</time>
      </trkpt>
      <trkpt lat="43.67056" lon="6.92045">
        <ele>656.056</ele>
        <time>2012-12-01T08:33:42Z</time>
      </trkpt>
      <trkpt lat="43.67063" lon="6.92063">
        <ele>657.565</ele>
        <time>2012-12-01T08:33:51Z</time>
      </trkpt>
      <trkpt lat="43.6707" lon="6.92077">
        <ele>658.505</ele>
        <time>2012-12-01T08:33:58Z</time>
      </trkpt>
      <trkpt lat="43.67077" lon="6.9209">
        <ele>659.765</ele>
        <time>2012-12-01T08:34:05Z</time>
      </trkpt>
      <trkpt lat="43.6708" lon="6.92092">
        <ele>660.216</ele>
        <time>2012-12-01T08:34:07Z</time>
      </trkpt>
      <trkpt lat="43.67084" lon="6.92086">
        <ele>661.926</ele>
        <time>2012-12-01T08:34:12Z</time>
      </trkpt>
      <trkpt lat="43.67081" lon="6.92067">
        <ele>666.567</ele>
        <time>2012-12-01T08:34:21Z</time>
      </trkpt>
      <trkpt lat="43.67082" lon="6.92046">
        <ele>670.628</ele>
        <time>2012-12-01T08:34:31Z</time>
      </trkpt>
      <trkpt lat="43.67084" lon="6.92029">
        <ele>672.887</ele>
        <time>2012-12-01T08:34:39Z</time>
      </trkpt>
      <trkpt lat="43.67089" lon="6.92011">
        <ele>675.506</ele>
        <time>2012-12-01T08:34:48Z</time>
      </trkpt>
      <trkpt lat="43.67093" lon="6.91996">
        <ele>678.087</ele>
        <time>2012-12-01T08:34:56Z</time>
      </trkpt>
      <trkpt lat="43.67096" lon="6.9198">
        <ele>680.857</ele>
        <time>2012-12-01T08:35:04Z</time>
      </trkpt>
      <trkpt lat="43.67101" lon="6.91962">
        <ele>682.657</ele>
        <time>2012-12-01T08:35:13Z</time>
      </trkpt>
      <trkpt lat="43.67109" lon="6.91942">
        <ele>684.246</ele>
        <time>2012-12-01T08:35:24Z</time>
      </trkpt>
      <trkpt lat="43.67114" lon="6.91927">
        <ele>684.996</ele>
        <time>2012-12-01T08:35:32Z</time>
      </trkpt>
      <trkpt lat="43.67121" lon="6.91911">
        <ele>686.766</ele>
        <time>2012-12-01T08:35:41Z</time>
      </trkpt>
      <trkpt lat="43.67128" lon="6.91897">
        <ele>688.166</ele>
        <time>2012-12-01T08:35:49Z</time>
      </trkpt>
      <trkpt lat="43.67135" lon="6.91884">
        <ele>689.126</ele>
        <time>2012-12-01T08:35:57Z</time>
      </trkpt>
      <trkpt lat="43.67143" lon="6.91867">
        <ele>691.307</ele>
        <time>2012-12-01T08:36:06Z</time>
      </trkpt>
      <trkpt lat="43.67151" lon="6.91851">
        <ele>693.746</ele>
        <time>2012-12-01T08:36:16Z</time>
      </trkpt>
      <trkpt lat="43.67158" lon="6.91839">
        <ele>694.996</ele>
        <time>2012-12-01T08:36:23Z</time>
      </trkpt>
      <trkpt lat="43.67164" lon="6.91827">
        <ele>696.556</ele>
        <time>2012-12-01T08:36:30Z</time>
      </trkpt>
      <trkpt lat="43.67166" lon="6.91824">
        <ele>696.456</ele>
        <time>2012-12-01T08:36:32Z</time>
      </trkpt>
      <trkpt lat="43.6717" lon="6.91828">
        <ele>697.276</ele>
        <time>2012-12-01T08:36:37Z</time>
      </trkpt>
      <trkpt lat="43.67167" lon="6.91841">
        <ele>698.646</ele>
        <time>2012-12-01T08:36:45Z</time>
      </trkpt>
      <trkpt lat="43.67167" lon="6.91856">
        <ele>699.426</ele>
        <time>2012-12-01T08:36:53Z</time>
      </trkpt>
      <trkpt lat="43.67168" lon="6.91877">
        <ele>698.005</ele>
        <time>2012-12-01T08:37:03Z</time>
      </trkpt>
      <trkpt lat="43.67167" lon="6.91895">
        <ele>698.115</ele>
        <time>2012-12-01T08:37:10Z</time>
      </trkpt>
      <trkpt lat="43.67167" lon="6.9192">
        <ele>699.205</ele>
        <time>2012-12-01T08:37:20Z</time>
      </trkpt>
      <trkpt lat="43.67168" lon="6.91937">
        <ele>699.245</ele>
        <time>2012-12-01T08:37:27Z</time>
      </trkpt>
      <trkpt lat="43.67169" lon="6.91958">
        <ele>700.056</ele>
        <time>2012-12-01T08:37:37Z</time>
      </trkpt>
      <trkpt lat="43.6717" lon="6.91973">
        <ele>700.696</ele>
        <time>2012-12-01T08:37:44Z</time>
      </trkpt>
      <trkpt lat="43.67173" lon="6.91987">
        <ele>702.356</ele>
        <time>2012-12-01T08:37:51Z</time>
      </trkpt>
      <trkpt lat="43.67183" lon="6.92001">
        <ele>704.206</ele>
        <time>2012-12-01T08:38:00Z</time>
      </trkpt>
      <trkpt lat="43.67193" lon="6.92006">
        <ele>705.616</ele>
        <time>2012-12-01T08:38:07Z</time>
      </trkpt>
      <trkpt lat="43.67201" lon="6.9201">
        <ele>706.786</ele>
        <time>2012-12-01T08:38:13Z</time>
      </trkpt>
      <trkpt lat="43.67213" lon="6.92017">
        <ele>709.266</ele>
        <time>2012-12-01T08:38:22Z</time>
      </trkpt>
      <trkpt lat="43.67223" lon="6.92023">
        <ele>709.856</ele>
        <time>2012-12-01T08:38:28Z</time>
      </trkpt>
      <trkpt lat="43.67234" lon="6.9203">
        <ele>710.667</ele>
        <time>2012-12-01T08:38:36Z</time>
      </trkpt>
      <trkpt lat="43.67243" lon="6.92037">
        <ele>710.265</ele>
        <time>2012-12-01T08:38:44Z</time>
      </trkpt>
      <trkpt lat="43.67248" lon="6.92042">
        <ele>709.884</ele>
        <time>2012-12-01T08:38:48Z</time>
      </trkpt>
      <trkpt lat="43.67257" lon="6.92055">
        <ele>711.376</ele>
        <time>2012-12-01T08:38:58Z</time>
      </trkpt>
      <trkpt lat="43.67265" lon="6.92067">
        <ele>712.386</ele>
        <time>2012-12-01T08:39:06Z</time>
      </trkpt>
      <trkpt lat="43.6727" lon="6.92075">
        <ele>712.805</ele>
        <time>2012-12-01T08:39:12Z</time>
      </trkpt>
      <trkpt lat="43.67275" lon="6.92084">
        <ele>714.477</ele>
        <time>2012-12-01T08:39:18Z</time>
      </trkpt>
      <trkpt lat="43.67282" lon="6.92098">
        <ele>718.638</ele>
        <time>2012-12-01T08:39:26Z</time>
      </trkpt>
      <trkpt lat="43.67288" lon="6.92109">
        <ele>718.807</ele>
        <time>2012-12-01T08:39:33Z</time>
      </trkpt>
      <trkpt lat="43.67294" lon="6.92122">
        <ele>718.657</ele>
        <time>2012-12-01T08:39:41Z</time>
      </trkpt>
      <trkpt lat="43.67298" lon="6.92132">
        <ele>720.006</ele>
        <time>2012-12-01T08:39:47Z</time>
      </trkpt>
      <trkpt lat="43.67304" lon="6.92146">
        <ele>720.976</ele>
        <time>2012-12-01T08:39:56Z</time>
      </trkpt>
      <trkpt lat="43.6731" lon="6.9216">
        <ele>720.586</ele>
        <time>2012-12-01T08:40:05Z</time>
      </trkpt>
      <trkpt lat="43.67314" lon="6.92173">
        <ele>721.355</ele>
        <time>2012-12-01T08:40:13Z</time>
      </trkpt>
      <trkpt lat="43.67318" lon="6.92187">
        <ele>726.238</ele>
        <time>2012-12-01T08:40:22Z</time>
      </trkpt>
      <trkpt lat="43.67319" lon="6.92198">
        <ele>731.458</ele>
        <time>2012-12-01T08:40:28Z</time>
      </trkpt>
      <trkpt lat="43.67321" lon="6.92203">
        <ele>730.977</ele>
        <time>2012-12-01T08:40:32Z</time>
      </trkpt>
      <trkpt lat="43.67324" lon="6.92211">
        <ele>730.597</ele>
        <time>2012-12-01T08:40:38Z</time>
      </trkpt>
      <trkpt lat="43.67328" lon="6.92226">
        <ele>734.488</ele>
        <time>2012-12-01T08:40:46Z</time>
      </trkpt>
      <trkpt lat="43.67332" lon="6.92238">
        <ele>734.317</ele>
        <time>2012-12-01T08:40:54Z</time>
      </trkpt>
      <trkpt lat="43.67336" lon="6.9225">
        <ele>735.806</ele>
        <time>2012-12-01T08:41:01Z</time>
      </trkpt>
      <trkpt lat="43.67341" lon="6.92262">
        <ele>734.266</ele>
        <time>2012-12-01T08:41:09Z</time>
      </trkpt>
      <trkpt lat="43.67344" lon="6.92275">
        <ele>735.917</ele>
        <time>2012-12-01T08:41:16Z</time>
      </trkpt>
      <trkpt lat="43.6735" lon="6.92291">
        <ele>739.138</ele>
        <time>2012-12-01T08:41:24Z</time>
      </trkpt>
      <trkpt lat="43.67357" lon="6.92308">
        <ele>739.457</ele>
        <time>2012-12-01T08:41:33Z</time>
      </trkpt>
      <trkpt lat="43.67362" lon="6.92323">
        <ele>741.318</ele>
        <time>2012-12-01T08:41:41Z</time>
      </trkpt>
      <trkpt lat="43.67367" lon="6.92336">
        <ele>742.788</ele>
        <time>2012-12-01T08:41:48Z</time>
      </trkpt>
      <trkpt lat="43.67373" lon="6.92352">
        <ele>746.999</ele>
        <time>2012-12-01T08:41:56Z</time>
      </trkpt>
      <trkpt lat="43.67377" lon="6.92367">
        <ele>747.677</ele>
        <time>2012-12-01T08:42:03Z</time>
      </trkpt>
      <trkpt lat="43.67381" lon="6.92388">
        <ele>748.067</ele>
        <time>2012-12-01T08:42:13Z</time>
      </trkpt>
      <trkpt lat="43.67384" lon="6.92405">
        <ele>748.767</ele>
        <time>2012-12-01T08:42:21Z</time>
      </trkpt>
      <trkpt lat="43.67388" lon="6.92425">
        <ele>749.937</ele>
        <time>2012-12-01T08:42:30Z</time>
      </trkpt>
      <trkpt lat="43.67392" lon="6.92447">
        <ele>748.116</ele>
        <time>2012-12-01T08:42:39Z</time>
      </trkpt>
      <trkpt lat="43.67396" lon="6.92466">
        <ele>749.457</ele>
        <time>2012-12-01T08:42:47Z</time>
      </trkpt>
      <trkpt lat="43.67401" lon="6.92483">
        <ele>750.447</ele>
        <time>2012-12-01T08:42:54Z</time>
      </trkpt>
      <trkpt lat="43.67408" lon="6.92504">
        <ele>752.387</ele>
        <time>2012-12-01T08:43:03Z</time>
      </trkpt>
      <trkpt lat="43.67415" lon="6.92518">
        <ele>753.497</ele>
        <time>2012-12-01T08:43:11Z</time>
      </trkpt>
      <trkpt lat="43.67423" lon="6.92532">
        <ele>754.798</ele>
        <time>2012-12-01T08:43:19Z</time>
      </trkpt>
      <trkpt lat="43.67431" lon="6.92544">
        <ele>756.008</ele>
        <time>2012-12-01T08:43:28Z</time>
      </trkpt>
      <trkpt lat="43.67442" lon="6.92557">
        <ele>756.798</ele>
        <time>2012-12-01T08:43:36Z</time>
      </trkpt>
      <trkpt lat="43.67454" lon="6.92573">
        <ele>757.107</ele>
        <time>2012-12-01T08:43:46Z</time>
      </trkpt>
      <trkpt lat="43.67469" lon="6.92586">
        <ele>756.517</ele>
        <time>2012-12-01T08:43:56Z</time>
      </trkpt>
      <trkpt lat="43.67482" lon="6.92595">
        <ele>756.547</ele>
        <time>2012-12-01T08:44:04Z</time>
      </trkpt>
      <trkpt lat="43.67495" lon="6.92601">
        <ele>756.598</ele>
        <time>2012-12-01T08:44:12Z</time>
      </trkpt>
      <trkpt lat="43.67507" lon="6.92607">
        <ele>758.968</ele>
        <time>2012-12-01T08:44:20Z</time>
      </trkpt>
      <trkpt lat="43.67518" lon="6.92612">
        <ele>760.688</ele>
        <time>2012-12-01T08:44:27Z</time>
      </trkpt>
      <trkpt lat="43.67533" lon="6.92618">
        <ele>762.128</ele>
        <time>2012-12-01T08:44:36Z</time>
      </trkpt>
      <trkpt lat="43.67545" lon="6.92622">
        <ele>763.497</ele>
        <time>2012-12-01T08:44:43Z</time>
      </trkpt>
      <trkpt lat="43.67558" lon="6.92626">
        <ele>766.888</ele>
        <time>2012-12-01T08:44:51Z</time>
      </trkpt>
      <trkpt lat="43.67571" lon="6.92625">
        <ele>768.197</ele>
        <time>2012-12-01T08:44:59Z</time>
      </trkpt>
      <trkpt lat="43.67584" lon="6.92623">
        <ele>769.177</ele>
        <time>2012-12-01T08:45:07Z</time>
      </trkpt>
      <trkpt lat="43.67596" lon="6.9262">
        <ele>772.888</ele>
        <time>2012-12-01T08:45:15Z</time>
      </trkpt>
      <trkpt lat="43.67609" lon="6.92617">
        <ele>777.598</ele>
        <time>2012-12-01T08:45:23Z</time>
      </trkpt>
      <trkpt lat="43.67619" lon="6.92614">
        <ele>781.348</ele>
        <time>2012-12-01T08:45:30Z</time>
      </trkpt>
      <trkpt lat="43.67635" lon="6.92609">
        <ele>782.727</ele>
        <time>2012-12-01T08:45:39Z</time>
      </trkpt>
      <trkpt lat="43.67645" lon="6.92606">
        <ele>785.398</ele>
        <time>2012-12-01T08:45:45Z</time>
      </trkpt>
      <trkpt lat="43.67656" lon="6.92601">
        <ele>782.966</ele>
        <time>2012-12-01T08:45:53Z</time>
      </trkpt>
      <trkpt lat="43.6766" lon="6.92598">
        <ele>781.835</ele>
        <time>2012-12-01T08:45:56Z</time>
      </trkpt>
      <trkpt lat="43.67667" lon="6.92595">
        <ele>781.196</ele>
        <time>2012-12-01T08:46:01Z</time>
      </trkpt>
      <trkpt lat="43.67679" lon="6.92587">
        <ele>783.097</ele>
        <time>2012-12-01T08:46:10Z</time>
      </trkpt>
      <trkpt lat="43.67692" lon="6.9258">
        <ele>784.226</ele>
        <time>2012-12-01T08:46:19Z</time>
      </trkpt>
      <trkpt lat="43.67701" lon="6.92574">
        <ele>784.427</ele>
        <time>2012-12-01T08:46:26Z</time>
      </trkpt>
      <trkpt lat="43.67711" lon="6.9257">
        <ele>786.138</ele>
        <time>2012-12-01T08:46:34Z</time>
      </trkpt>
      <trkpt lat="43.6772" lon="6.92565">
        <ele>788.788</ele>
        <time>2012-12-01T08:46:41Z</time>
      </trkpt>
      <trkpt lat="43.67733" lon="6.92559">
        <ele>789.408</ele>
        <time>2012-12-01T08:46:50Z</time>
      </trkpt>
      <trkpt lat="43.67746" lon="6.92552">
        <ele>791.378</ele>
        <time>2012-12-01T08:46:59Z</time>
      </trkpt>
      <trkpt lat="43.67756" lon="6.92545">
        <ele>791.727</ele>
        <time>2012-12-01T08:47:06Z</time>
      </trkpt>
      <trkpt lat="43.67769" lon="6.92537">
        <ele>793.727</ele>
        <time>2012-12-01T08:47:16Z</time>
      </trkpt>
      <trkpt lat="43.67778" lon="6.92533">
        <ele>795.576</ele>
        <time>2012-12-01T08:47:22Z</time>
      </trkpt>
      <trkpt lat="43.67784" lon="6.92528">
        <ele>795.885</ele>
        <time>2012-12-01T08:47:29Z</time>
      </trkpt>
      <trkpt lat="43.67793" lon="6.92523">
        <ele>795.676</ele>
        <time>2012-12-01T08:47:36Z</time>
      </trkpt>
      <trkpt lat="43.67801" lon="6.9252">
        <ele>798.626</ele>
        <time>2012-12-01T08:47:43Z</time>
      </trkpt>
      <trkpt lat="43.67813" lon="6.92515">
        <ele>799.567</ele>
        <time>2012-12-01T08:47:52Z</time>
      </trkpt>
      <trkpt lat="43.67821" lon="6.92511">
        <ele>799.986</ele>
        <time>2012-12-01T08:47:58Z</time>
      </trkpt>
      <trkpt lat="43.67832" lon="6.92506">
        <ele>803.318</ele>
        <time>2012-12-01T08:48:07Z</time>
      </trkpt>
      <trkpt lat="43.67838" lon="6.92502">
        <ele>805.138</ele>
        <time>2012-12-01T08:48:13Z</time>
      </trkpt>
      <trkpt lat="43.6784" lon="6.925">
        <ele>805.717</ele>
        <time>2012-12-01T08:48:18Z</time>
      </trkpt>
      <trkpt lat="43.67846" lon="6.92498">
        <ele>804.807</ele>
        <time>2012-12-01T08:48:25Z</time>
      </trkpt>
      <trkpt lat="43.67855" lon="6.92496">
        <ele>805.388</ele>
        <time>2012-12-01T08:48:34Z</time>
      </trkpt>
      <trkpt lat="43.6786" lon="6.92495">
        <ele>806.898</ele>
        <time>2012-12-01T08:48:42Z</time>
      </trkpt>
      <trkpt lat="43.67867" lon="6.92492">
        <ele>802.577</ele>
        <time>2012-12-01T08:48:59Z</time>
      </trkpt>
      <trkpt lat="43.67877" lon="6.92485">
        <ele>808.489</ele>
        <time>2012-12-01T08:49:07Z</time>
      </trkpt>
      <trkpt lat="43.67888" lon="6.92481">
        <ele>814.278</ele>
        <time>2012-12-01T08:49:14Z</time>
      </trkpt>
      <trkpt lat="43.67896" lon="6.92475">
        <ele>816.278</ele>
        <time>2012-12-01T08:49:21Z</time>
      </trkpt>
      <trkpt lat="43.679" lon="6.92473">
        <ele>816.918</ele>
        <time>2012-12-01T08:49:24Z</time>
      </trkpt>
      <trkpt lat="43.67911" lon="6.92465">
        <ele>820.788</ele>
        <time>2012-12-01T08:49:33Z</time>
      </trkpt>
      <trkpt lat="43.67919" lon="6.9246">
        <ele>824.988</ele>
        <time>2012-12-01T08:49:40Z</time>
      </trkpt>
      <trkpt lat="43.67927" lon="6.92455">
        <ele>826.398</ele>
        <time>2012-12-01T08:49:47Z</time>
      </trkpt>
      <trkpt lat="43.67934" lon="6.92448">
        <ele>826.037</ele>
        <time>2012-12-01T08:49:54Z</time>
      </trkpt>
      <trkpt lat="43.67942" lon="6.92438">
        <ele>825.677</ele>
        <time>2012-12-01T08:50:01Z</time>
      </trkpt>
      <trkpt lat="43.67943" lon="6.92437">
        <ele>826.207</ele>
        <time>2012-12-01T08:50:02Z</time>
      </trkpt>
      <trkpt lat="43.67948" lon="6.92431">
        <ele>828.778</ele>
        <time>2012-12-01T08:50:08Z</time>
      </trkpt>
      <trkpt lat="43.67952" lon="6.92426">
        <ele>829.028</ele>
        <time>2012-12-01T08:50:11Z</time>
      </trkpt>
      <trkpt lat="43.6796" lon="6.92414">
        <ele>831.258</ele>
        <time>2012-12-01T08:50:20Z</time>
      </trkpt>
      <trkpt lat="43.67963" lon="6.9241">
        <ele>836.049</ele>
        <time>2012-12-01T08:50:24Z</time>
      </trkpt>
      <trkpt lat="43.6797" lon="6.92398">
        <ele>837.718</ele>
        <time>2012-12-01T08:50:32Z</time>
      </trkpt>
      <trkpt lat="43.67975" lon="6.92389">
        <ele>838.118</ele>
        <time>2012-12-01T08:50:39Z</time>
      </trkpt>
      <trkpt lat="43.67981" lon="6.92378">
        <ele>838.738</ele>
        <time>2012-12-01T08:50:46Z</time>
      </trkpt>
      <trkpt lat="43.67988" lon="6.92367">
        <ele>842.299</ele>
        <time>2012-12-01T08:50:54Z</time>
      </trkpt>
      <trkpt lat="43.67991" lon="6.92362">
        <ele>842.349</ele>
        <time>2012-12-01T08:50:58Z</time>
      </trkpt>
      <trkpt lat="43.67997" lon="6.92353">
        <ele>841.698</ele>
        <time>2012-12-01T08:51:05Z</time>
      </trkpt>
      <trkpt lat="43.68004" lon="6.92345">
        <ele>842.738</ele>
        <time>2012-12-01T08:51:12Z</time>
      </trkpt>
      <trkpt lat="43.68011" lon="6.92339">
        <ele>849.721</ele>
        <time>2012-12-01T08:51:20Z</time>
      </trkpt>
      <trkpt lat="43.68012" lon="6.92336">
        <ele>853.385</ele>
        <time>2012-12-01T08:51:25Z</time>
      </trkpt>
      <trkpt lat="43.68021" lon="6.92331">
        <ele>858.547</ele>
        <time>2012-12-01T08:51:48Z</time>
      </trkpt>
      <trkpt lat="43.68028" lon="6.92324">
        <ele>856.796</ele>
        <time>2012-12-01T08:51:54Z</time>
      </trkpt>
      <trkpt lat="43.68033" lon="6.92321">
        <ele>855.176</ele>
        <time>2012-12-01T08:51:58Z</time>
      </trkpt>
      <trkpt lat="43.68045" lon="6.92315">
        <ele>856.637</ele>
        <time>2012-12-01T08:52:06Z</time>
      </trkpt>
      <trkpt lat="43.68052" lon="6.92321">
        <ele>858.479</ele>
        <time>2012-12-01T08:52:13Z</time>
      </trkpt>
      <trkpt lat="43.68048" lon="6.92332">
        <ele>860.14</ele>
        <time>2012-12-01T08:52:18Z</time>
      </trkpt>
      <trkpt lat="43.68047" lon="6.92333">
        <ele>859.81</ele>
        <time>2012-12-01T08:52:19Z</time>
      </trkpt>
      <trkpt lat="43.68039" lon="6.92343">
        <ele>860.015</ele>
        <time>2012-12-01T08:52:25Z</time>
      </trkpt>
      <trkpt lat="43.68039" lon="6.92351">
        <ele>858.238</ele>
        <time>2012-12-01T08:52:29Z</time>
      </trkpt>
      <trkpt lat="43.68043" lon="6.92363">
        <ele>857.727</ele>
        <time>2012-12-01T08:52:34Z</time>
      </trkpt>
      <trkpt lat="43.68044" lon="6.92389">
        <ele>856.247</ele>
        <time>2012-12-01T08:52:45Z</time>
      </trkpt>
      <trkpt lat="43.68045" lon="6.92405">
        <ele>858.537</ele>
        <time>2012-12-01T08:52:52Z</time>
      </trkpt>
      <trkpt lat="43.68043" lon="6.92418">
        <ele>858.588</ele>
        <time>2012-12-01T08:52:59Z</time>
      </trkpt>
      <trkpt lat="43.68043" lon="6.92435">
        <ele>859.538</ele>
        <time>2012-12-01T08:53:08Z</time>
      </trkpt>
      <trkpt lat="43.68043" lon="6.92452">
        <ele>859.407</ele>
        <time>2012-12-01T08:53:17Z</time>
      </trkpt>
      <trkpt lat="43.68043" lon="6.92468">
        <ele>860.638</ele>
        <time>2012-12-01T08:53:26Z</time>
      </trkpt>
      <trkpt lat="43.68043" lon="6.92483">
        <ele>862.557</ele>
        <time>2012-12-01T08:53:34Z</time>
      </trkpt>
      <trkpt lat="43.68043" lon="6.92488">
        <ele>862.747</ele>
        <time>2012-12-01T08:53:37Z</time>
      </trkpt>
      <trkpt lat="43.6805" lon="6.92493">
        <ele>864.868</ele>
        <time>2012-12-01T08:53:43Z</time>
      </trkpt>
      <trkpt lat="43.68052" lon="6.92486">
        <ele>866.319</ele>
        <time>2012-12-01T08:53:47Z</time>
      </trkpt>
      <trkpt lat="43.68052" lon="6.92484">
        <ele>867.02</ele>
        <time>2012-12-01T08:53:48Z</time>
      </trkpt>
      <trkpt lat="43.68056" lon="6.92466">
        <ele>875.971</ele>
        <time>2012-12-01T08:53:58Z</time>
      </trkpt>
      <trkpt lat="43.68061" lon="6.92452">
        <ele>881.282</ele>
        <time>2012-12-01T08:54:05Z</time>
      </trkpt>
      <trkpt lat="43.68066" lon="6.9244">
        <ele>883.7</ele>
        <time>2012-12-01T08:54:11Z</time>
      </trkpt>
      <trkpt lat="43.68072" lon="6.92425">
        <ele>887.871</ele>
        <time>2012-12-01T08:54:19Z</time>
      </trkpt>
      <trkpt lat="43.68074" lon="6.9242">
        <ele>886.179</ele>
        <time>2012-12-01T08:54:22Z</time>
      </trkpt>
      <trkpt lat="43.68083" lon="6.92409">
        <ele>886.609</ele>
        <time>2012-12-01T08:54:30Z</time>
      </trkpt>
      <trkpt lat="43.68093" lon="6.92398">
        <ele>886.729</ele>
        <time>2012-12-01T08:54:38Z</time>
      </trkpt>
      <trkpt lat="43.68105" lon="6.92387">
        <ele>890.04</ele>
        <time>2012-12-01T08:54:47Z</time>
      </trkpt>
      <trkpt lat="43.68115" lon="6.92378">
        <ele>891.829</ele>
        <time>2012-12-01T08:54:55Z</time>
      </trkpt>
      <trkpt lat="43.68123" lon="6.92368">
        <ele>892.66</ele>
        <time>2012-12-01T08:55:02Z</time>
      </trkpt>
      <trkpt lat="43.68131" lon="6.9236">
        <ele>893.82</ele>
        <time>2012-12-01T08:55:08Z</time>
      </trkpt>
      <trkpt lat="43.68139" lon="6.92351">
        <ele>894.869</ele>
        <time>2012-12-01T08:55:15Z</time>
      </trkpt>
      <trkpt lat="43.68145" lon="6.92344">
        <ele>896.969</ele>
        <time>2012-12-01T08:55:22Z</time>
      </trkpt>
      <trkpt lat="43.68149" lon="6.9234">
        <ele>897.84</ele>
        <time>2012-12-01T08:55:26Z</time>
      </trkpt>
      <trkpt lat="43.68161" lon="6.9233">
        <ele>898.769</ele>
        <time>2012-12-01T08:55:35Z</time>
      </trkpt>
      <trkpt lat="43.68164" lon="6.92328">
        <ele>898.869</ele>
        <time>2012-12-01T08:55:38Z</time>
      </trkpt>
      <trkpt lat="43.68174" lon="6.92326">
        <ele>897.847</ele>
        <time>2012-12-01T08:55:45Z</time>
      </trkpt>
      <trkpt lat="43.68179" lon="6.92326">
        <ele>897.508</ele>
        <time>2012-12-01T08:55:49Z</time>
      </trkpt>
      <trkpt lat="43.68192" lon="6.92327">
        <ele>893.737</ele>
        <time>2012-12-01T08:55:57Z</time>
      </trkpt>
      <trkpt lat="43.68193" lon="6.92327">
        <ele>885.786</ele>
        <time>2012-12-01T08:56:31Z</time>
      </trkpt>
      <trkpt lat="43.68205" lon="6.92325">
        <ele>889.888</ele>
        <time>2012-12-01T08:56:40Z</time>
      </trkpt>
      <trkpt lat="43.68216" lon="6.9232">
        <ele>892.599</ele>
        <time>2012-12-01T08:56:48Z</time>
      </trkpt>
      <trkpt lat="43.68227" lon="6.92315">
        <ele>897.681</ele>
        <time>2012-12-01T08:56:55Z</time>
      </trkpt>
      <trkpt lat="43.68234" lon="6.92309">
        <ele>903.018</ele>
        <time>2012-12-01T08:57:02Z</time>
      </trkpt>
      <trkpt lat="43.6824" lon="6.92304">
        <ele>906.181</ele>
        <time>2012-12-01T08:57:08Z</time>
      </trkpt>
      <trkpt lat="43.68242" lon="6.92302">
        <ele>902.187</ele>
        <time>2012-12-01T08:57:13Z</time>
      </trkpt>
      <trkpt lat="43.68244" lon="6.92301">
        <ele>896.636</ele>
        <time>2012-12-01T08:57:20Z</time>
      </trkpt>
      <trkpt lat="43.68251" lon="6.923">
        <ele>897.147</ele>
        <time>2012-12-01T08:57:26Z</time>
      </trkpt>
      <trkpt lat="43.68263" lon="6.92304">
        <ele>897.898</ele>
        <time>2012-12-01T08:57:33Z</time>
      </trkpt>
      <trkpt lat="43.68271" lon="6.92308">
        <ele>897.168</ele>
        <time>2012-12-01T08:57:40Z</time>
      </trkpt>
      <trkpt lat="43.68276" lon="6.9231">
        <ele>897.508</ele>
        <time>2012-12-01T08:57:44Z</time>
      </trkpt>
      <trkpt lat="43.6828" lon="6.92311">
        <ele>898.449</ele>
        <time>2012-12-01T08:57:48Z</time>
      </trkpt>
      <trkpt lat="43.6829" lon="6.92315">
        <ele>900.119</ele>
        <time>2012-12-01T08:57:55Z</time>
      </trkpt>
      <trkpt lat="43.68299" lon="6.92321">
        <ele>901.228</ele>
        <time>2012-12-01T08:58:03Z</time>
      </trkpt>
      <trkpt lat="43.68303" lon="6.92327">
        <ele>901.819</ele>
        <time>2012-12-01T08:58:07Z</time>
      </trkpt>
      <trkpt lat="43.68315" lon="6.92335">
        <ele>902.759</ele>
        <time>2012-12-01T08:58:17Z</time>
      </trkpt>
      <trkpt lat="43.68323" lon="6.92341">
        <ele>903.389</ele>
        <time>2012-12-01T08:58:24Z</time>
      </trkpt>
      <trkpt lat="43.68331" lon="6.92348">
        <ele>902.608</ele>
        <time>2012-12-01T08:58:29Z</time>
      </trkpt>
      <trkpt lat="43.68338" lon="6.92354">
        <ele>902.979</ele>
        <time>2012-12-01T08:58:34Z</time>
      </trkpt>
      <trkpt lat="43.68348" lon="6.92357">
        <ele>905.058</ele>
        <time>2012-12-01T08:58:42Z</time>
      </trkpt>
      <trkpt lat="43.68356" lon="6.92361">
        <ele>907.359</ele>
        <time>2012-12-01T08:58:47Z</time>
      </trkpt>
      <trkpt lat="43.68366" lon="6.92363">
        <ele>910.379</ele>
        <time>2012-12-01T08:58:54Z</time>
      </trkpt>
      <trkpt lat="43.68375" lon="6.92364">
        <ele>913.15</ele>
        <time>2012-12-01T08:59:00Z</time>
      </trkpt>
      <trkpt lat="43.68387" lon="6.92366">
        <ele>916.3</ele>
        <time>2012-12-01T08:59:07Z</time>
      </trkpt>
      <trkpt lat="43.68398" lon="6.92368">
        <ele>917.728</ele>
        <time>2012-12-01T08:59:15Z</time>
      </trkpt>
      <trkpt lat="43.68402" lon="6.92369">
        <ele>917.518</ele>
        <time>2012-12-01T08:59:17Z</time>
      </trkpt>
      <trkpt lat="43.68407" lon="6.92363">
        <ele>918.199</ele>
        <time>2012-12-01T08:59:22Z</time>
      </trkpt>
      <trkpt lat="43.68407" lon="6.92358">
        <ele>920.769</ele>
        <time>2012-12-01T08:59:28Z</time>
      </trkpt>
      <trkpt lat="43.68404" lon="6.92358">
        <ele>916.217</ele>
        <time>2012-12-01T09:00:33Z</time>
      </trkpt>
      <trkpt lat="43.684" lon="6.92346">
        <ele>916.417</ele>
        <time>2012-12-01T09:00:39Z</time>
      </trkpt>
      <trkpt lat="43.68394" lon="6.92328">
        <ele>919.398</ele>
        <time>2012-12-01T09:00:45Z</time>
      </trkpt>
      <trkpt lat="43.68384" lon="6.9231">
        <ele>924.051</ele>
        <time>2012-12-01T09:00:52Z</time>
      </trkpt>
      <trkpt lat="43.6837" lon="6.9229">
        <ele>929.674</ele>
        <time>2012-12-01T09:01:00Z</time>
      </trkpt>
      <trkpt lat="43.68365" lon="6.9228">
        <ele>931.172</ele>
        <time>2012-12-01T09:01:05Z</time>
      </trkpt>
      <trkpt lat="43.6835" lon="6.92268">
        <ele>930.16</ele>
        <time>2012-12-01T09:01:12Z</time>
      </trkpt>
      <trkpt lat="43.68336" lon="6.9225">
        <ele>925.468</ele>
        <time>2012-12-01T09:01:20Z</time>
      </trkpt>
      <trkpt lat="43.68323" lon="6.92233">
        <ele>925.408</ele>
        <time>2012-12-01T09:01:27Z</time>
      </trkpt>
      <trkpt lat="43.68318" lon="6.92221">
        <ele>927.14</ele>
        <time>2012-12-01T09:01:31Z</time>
      </trkpt>
      <trkpt lat="43.68312" lon="6.92198">
        <ele>935.444</ele>
        <time>2012-12-01T09:01:38Z</time>
      </trkpt>
      <trkpt lat="43.68312" lon="6.92179">
        <ele>937.552</ele>
        <time>2012-12-01T09:01:44Z</time>
      </trkpt>
      <trkpt lat="43.68313" lon="6.92159">
        <ele>934.841</ele>
        <time>2012-12-01T09:01:50Z</time>
      </trkpt>
      <trkpt lat="43.68317" lon="6.92149">
        <ele>924.889</ele>
        <time>2012-12-01T09:03:07Z</time>
      </trkpt>
      <trkpt lat="43.6832" lon="6.92131">
        <ele>928.72</ele>
        <time>2012-12-01T09:03:11Z</time>
      </trkpt>
      <trkpt lat="43.68315" lon="6.92111">
        <ele>929.751</ele>
        <time>2012-12-01T09:03:15Z</time>
      </trkpt>
      <trkpt lat="43.6831" lon="6.92092">
        <ele>931.102</ele>
        <time>2012-12-01T09:03:20Z</time>
      </trkpt>
      <trkpt lat="43.68305" lon="6.92079">
        <ele>924.677</ele>
        <time>2012-12-01T09:03:24Z</time>
      </trkpt>
      <trkpt lat="43.68298" lon="6.92062">
        <ele>921.807</ele>
        <time>2012-12-01T09:03:28Z</time>
      </trkpt>
      <trkpt lat="43.68292" lon="6.92049">
        <ele>921.136</ele>
        <time>2012-12-01T09:03:32Z</time>
      </trkpt>
      <trkpt lat="43.68279" lon="6.92033">
        <ele>916.055</ele>
        <time>2012-12-01T09:03:37Z</time>
      </trkpt>
      <trkpt lat="43.68268" lon="6.92022">
        <ele>911.495</ele>
        <time>2012-12-01T09:03:41Z</time>
      </trkpt>
      <trkpt lat="43.6826" lon="6.92023">
        <ele>907.834</ele>
        <time>2012-12-01T09:03:45Z</time>
      </trkpt>
      <trkpt lat="43.6825" lon="6.92027">
        <ele>908.797</ele>
        <time>2012-12-01T09:03:50Z</time>
      </trkpt>
      <trkpt lat="43.68236" lon="6.9203">
        <ele>904.966</ele>
        <time>2012-12-01T09:03:55Z</time>
      </trkpt>
      <trkpt lat="43.68223" lon="6.92038">
        <ele>902.136</ele>
        <time>2012-12-01T09:04:00Z</time>
      </trkpt>
      <trkpt lat="43.68207" lon="6.92039">
        <ele>901.806</ele>
        <time>2012-12-01T09:04:06Z</time>
      </trkpt>
      <trkpt lat="43.6819" lon="6.92042">
        <ele>901.755</ele>
        <time>2012-12-01T09:04:12Z</time>
      </trkpt>
      <trkpt lat="43.68165" lon="6.92054">
        <ele>899.285</ele>
        <time>2012-12-01T09:04:21Z</time>
      </trkpt>
      <trkpt lat="43.68142" lon="6.92065">
        <ele>899.346</ele>
        <time>2012-12-01T09:04:28Z</time>
      </trkpt>
      <trkpt lat="43.68123" lon="6.92077">
        <ele>898.505</ele>
        <time>2012-12-01T09:04:34Z</time>
      </trkpt>
      <trkpt lat="43.68102" lon="6.92087">
        <ele>897.515</ele>
        <time>2012-12-01T09:04:41Z</time>
      </trkpt>
      <trkpt lat="43.68078" lon="6.921">
        <ele>893.903</ele>
        <time>2012-12-01T09:04:48Z</time>
      </trkpt>
      <trkpt lat="43.68069" lon="6.92105">
        <ele>891.421</ele>
        <time>2012-12-01T09:04:50Z</time>
      </trkpt>
      <trkpt lat="43.68054" lon="6.92116">
        <ele>888.9</ele>
        <time>2012-12-01T09:04:53Z</time>
      </trkpt>
      <trkpt lat="43.68023" lon="6.92124">
        <ele>886.461</ele>
        <time>2012-12-01T09:04:58Z</time>
      </trkpt>
      <trkpt lat="43.68011" lon="6.92129">
        <ele>886.973</ele>
        <time>2012-12-01T09:05:00Z</time>
      </trkpt>
      <trkpt lat="43.67975" lon="6.92142">
        <ele>887.145</ele>
        <time>2012-12-01T09:05:07Z</time>
      </trkpt>
      <trkpt lat="43.6797" lon="6.92143">
        <ele>887.145</ele>
        <time>2012-12-01T09:05:08Z</time>
      </trkpt>
      <trkpt lat="43.67957" lon="6.92149">
        <ele>886.814</ele>
        <time>2012-12-01T09:05:11Z</time>
      </trkpt>
      <trkpt lat="43.6792" lon="6.92156">
        <ele>884.914</ele>
        <time>2012-12-01T09:05:18Z</time>
      </trkpt>
      <trkpt lat="43.67886" lon="6.92156">
        <ele>886.036</ele>
        <time>2012-12-01T09:05:25Z</time>
      </trkpt>
      <trkpt lat="43.67861" lon="6.92165">
        <ele>884.516</ele>
        <time>2012-12-01T09:05:30Z</time>
      </trkpt>
      <trkpt lat="43.67852" lon="6.92173">
        <ele>884.767</ele>
        <time>2012-12-01T09:05:32Z</time>
      </trkpt>
      <trkpt lat="43.67839" lon="6.92198">
        <ele>885.466</ele>
        <time>2012-12-01T09:05:38Z</time>
      </trkpt>
      <trkpt lat="43.67828" lon="6.92216">
        <ele>885.875</ele>
        <time>2012-12-01T09:05:43Z</time>
      </trkpt>
      <trkpt lat="43.67813" lon="6.92226">
        <ele>886.795</ele>
        <time>2012-12-01T09:05:48Z</time>
      </trkpt>
      <trkpt lat="43.67795" lon="6.9223">
        <ele>887.156</ele>
        <time>2012-12-01T09:05:53Z</time>
      </trkpt>
      <trkpt lat="43.67782" lon="6.92241">
        <ele>887.575</ele>
        <time>2012-12-01T09:05:58Z</time>
      </trkpt>
      <trkpt lat="43.67773" lon="6.92247">
        <ele>886.374</ele>
        <time>2012-12-01T09:06:01Z</time>
      </trkpt>
      <trkpt lat="43.67765" lon="6.92247">
        <ele>885.913</ele>
        <time>2012-12-01T09:06:03Z</time>
      </trkpt>
      <trkpt lat="43.67746" lon="6.92256">
        <ele>883.171</ele>
        <time>2012-12-01T09:06:07Z</time>
      </trkpt>
      <trkpt lat="43.67732" lon="6.92268">
        <ele>880.402</ele>
        <time>2012-12-01T09:06:12Z</time>
      </trkpt>
      <trkpt lat="43.67735" lon="6.9227">
        <ele>883.595</ele>
        <time>2012-12-01T09:06:19Z</time>
      </trkpt>
      <trkpt lat="43.67734" lon="6.92271">
        <ele>899.956</ele>
        <time>2012-12-01T09:11:10Z</time>
      </trkpt>
      <trkpt lat="43.67724" lon="6.92274">
        <ele>894.724</ele>
        <time>2012-12-01T09:11:16Z</time>
      </trkpt>
      <trkpt lat="43.67708" lon="6.92277">
        <ele>889.562</ele>
        <time>2012-12-01T09:11:22Z</time>
      </trkpt>
      <trkpt lat="43.67695" lon="6.92284">
        <ele>886.25</ele>
        <time>2012-12-01T09:11:26Z</time>
      </trkpt>
      <trkpt lat="43.67691" lon="6.92301">
        <ele>882.84</ele>
        <time>2012-12-01T09:11:30Z</time>
      </trkpt>
      <trkpt lat="43.67693" lon="6.92308">
        <ele>881.091</ele>
        <time>2012-12-01T09:11:32Z</time>
      </trkpt>
      <trkpt lat="43.67693" lon="6.92313">
        <ele>880.012</ele>
        <time>2012-12-01T09:11:36Z</time>
      </trkpt>
      <trkpt lat="43.67692" lon="6.92313">
        <ele>879.743</ele>
        <time>2012-12-01T09:11:37Z</time>
      </trkpt>
      <trkpt lat="43.67684" lon="6.92307">
        <ele>877.674</ele>
        <time>2012-12-01T09:11:42Z</time>
      </trkpt>
      <trkpt lat="43.67682" lon="6.92306">
        <ele>877.965</ele>
        <time>2012-12-01T09:11:46Z</time>
      </trkpt>
      <trkpt lat="43.67675" lon="6.92304">
        <ele>881.075</ele>
        <time>2012-12-01T09:12:02Z</time>
      </trkpt>
      <trkpt lat="43.67664" lon="6.92308">
        <ele>877.942</ele>
        <time>2012-12-01T09:12:07Z</time>
      </trkpt>
      <trkpt lat="43.67661" lon="6.92311">
        <ele>875.431</ele>
        <time>2012-12-01T09:12:09Z</time>
      </trkpt>
      <trkpt lat="43.67657" lon="6.92311">
        <ele>870.281</ele>
        <time>2012-12-01T09:12:14Z</time>
      </trkpt>
      <trkpt lat="43.67648" lon="6.92306">
        <ele>866.081</ele>
        <time>2012-12-01T09:12:19Z</time>
      </trkpt>
      <trkpt lat="43.67644" lon="6.92313">
        <ele>865.302</ele>
        <time>2012-12-01T09:12:24Z</time>
      </trkpt>
      <trkpt lat="43.67642" lon="6.92313">
        <ele>863.623</ele>
        <time>2012-12-01T09:12:29Z</time>
      </trkpt>
      <trkpt lat="43.6764" lon="6.92308">
        <ele>866.957</ele>
        <time>2012-12-01T09:12:43Z</time>
      </trkpt>
      <trkpt lat="43.67629" lon="6.92299">
        <ele>869.498</ele>
        <time>2012-12-01T09:12:48Z</time>
      </trkpt>
      <trkpt lat="43.67622" lon="6.92297">
        <ele>866.654</ele>
        <time>2012-12-01T09:12:52Z</time>
      </trkpt>
      <trkpt lat="43.67622" lon="6.92301">
        <ele>866.374</ele>
        <time>2012-12-01T09:12:53Z</time>
      </trkpt>
      <trkpt lat="43.67626" lon="6.92325">
        <ele>868.286</ele>
        <time>2012-12-01T09:12:58Z</time>
      </trkpt>
      <trkpt lat="43.67625" lon="6.92333">
        <ele>866.254</ele>
        <time>2012-12-01T09:13:00Z</time>
      </trkpt>
      <trkpt lat="43.67617" lon="6.92334">
        <ele>864.474</ele>
        <time>2012-12-01T09:13:04Z</time>
      </trkpt>
      <trkpt lat="43.67615" lon="6.92331">
        <ele>864.604</ele>
        <time>2012-12-01T09:13:05Z</time>
      </trkpt>
      <trkpt lat="43.67611" lon="6.92326">
        <ele>865.445</ele>
        <time>2012-12-01T09:13:07Z</time>
      </trkpt>
      <trkpt lat="43.67608" lon="6.92309">
        <ele>865.416</ele>
        <time>2012-12-01T09:13:11Z</time>
      </trkpt>
      <trkpt lat="43.67599" lon="6.923">
        <ele>864.335</ele>
        <time>2012-12-01T09:13:17Z</time>
      </trkpt>
      <trkpt lat="43.67599" lon="6.923">
        <ele>863.715</ele>
        <time>2012-12-01T09:13:18Z</time>
      </trkpt>
      <trkpt lat="43.67597" lon="6.92314">
        <ele>858.481</ele>
        <time>2012-12-01T09:13:23Z</time>
      </trkpt>
      <trkpt lat="43.67599" lon="6.92335">
        <ele>852.278</ele>
        <time>2012-12-01T09:13:28Z</time>
      </trkpt>
      <trkpt lat="43.676" lon="6.92338">
        <ele>851.058</ele>
        <time>2012-12-01T09:13:29Z</time>
      </trkpt>
      <trkpt lat="43.67593" lon="6.92338">
        <ele>847.298</ele>
        <time>2012-12-01T09:13:33Z</time>
      </trkpt>
      <trkpt lat="43.6758" lon="6.92322">
        <ele>845.019</ele>
        <time>2012-12-01T09:13:38Z</time>
      </trkpt>
      <trkpt lat="43.67576" lon="6.92317">
        <ele>845.08</ele>
        <time>2012-12-01T09:13:40Z</time>
      </trkpt>
      <trkpt lat="43.67573" lon="6.92325">
        <ele>840.157</ele>
        <time>2012-12-01T09:13:44Z</time>
      </trkpt>
      <trkpt lat="43.67571" lon="6.92333">
        <ele>837.808</ele>
        <time>2012-12-01T09:13:46Z</time>
      </trkpt>
      <trkpt lat="43.67566" lon="6.92338">
        <ele>834.429</ele>
        <time>2012-12-01T09:13:51Z</time>
      </trkpt>
      <trkpt lat="43.6756" lon="6.92343">
        <ele>833.02</ele>
        <time>2012-12-01T09:13:54Z</time>
      </trkpt>
      <trkpt lat="43.67558" lon="6.92342">
        <ele>833.281</ele>
        <time>2012-12-01T09:13:55Z</time>
      </trkpt>
      <trkpt lat="43.67555" lon="6.92341">
        <ele>831.373</ele>
        <time>2012-12-01T09:14:02Z</time>
      </trkpt>
      <trkpt lat="43.67553" lon="6.9234">
        <ele>826.825</ele>
        <time>2012-12-01T09:14:31Z</time>
      </trkpt>
      <trkpt lat="43.67552" lon="6.92337">
        <ele>825.234</ele>
        <time>2012-12-01T09:14:39Z</time>
      </trkpt>
      <trkpt lat="43.67554" lon="6.92333">
        <ele>822.016</ele>
        <time>2012-12-01T09:15:34Z</time>
      </trkpt>
      <trkpt lat="43.67558" lon="6.92335">
        <ele>822.936</ele>
        <time>2012-12-01T09:15:39Z</time>
      </trkpt>
      <trkpt lat="43.67557" lon="6.92342">
        <ele>858.656</ele>
        <time>2012-12-01T09:18:42Z</time>
      </trkpt>
      <trkpt lat="43.67558" lon="6.92337">
        <ele>845.713</ele>
        <time>2012-12-01T09:18:49Z</time>
      </trkpt>
      <trkpt lat="43.67553" lon="6.92333">
        <ele>841.156</ele>
        <time>2012-12-01T09:18:54Z</time>
      </trkpt>
      <trkpt lat="43.67546" lon="6.92321">
        <ele>839.383</ele>
        <time>2012-12-01T09:18:58Z</time>
      </trkpt>
      <trkpt lat="43.67536" lon="6.92293">
        <ele>838.504</ele>
        <time>2012-12-01T09:19:03Z</time>
      </trkpt>
      <trkpt lat="43.67531" lon="6.92279">
        <ele>837.794</ele>
        <time>2012-12-01T09:19:05Z</time>
      </trkpt>
      <trkpt lat="43.67523" lon="6.92262">
        <ele>836.533</ele>
        <time>2012-12-01T09:19:08Z</time>
      </trkpt>
      <trkpt lat="43.67518" lon="6.9226">
        <ele>829.35</ele>
        <time>2012-12-01T09:19:12Z</time>
      </trkpt>
      <trkpt lat="43.67516" lon="6.92272">
        <ele>823.618</ele>
        <time>2012-12-01T09:19:17Z</time>
      </trkpt>
      <trkpt lat="43.67509" lon="6.92274">
        <ele>816.857</ele>
        <time>2012-12-01T09:19:21Z</time>
      </trkpt>
      <trkpt lat="43.67494" lon="6.9226">
        <ele>814.77</ele>
        <time>2012-12-01T09:19:27Z</time>
      </trkpt>
      <trkpt lat="43.67481" lon="6.92244">
        <ele>815.413</ele>
        <time>2012-12-01T09:19:32Z</time>
      </trkpt>
      <trkpt lat="43.67474" lon="6.92229">
        <ele>814.002</ele>
        <time>2012-12-01T09:19:36Z</time>
      </trkpt>
      <trkpt lat="43.67462" lon="6.92212">
        <ele>811.581</ele>
        <time>2012-12-01T09:19:41Z</time>
      </trkpt>
      <trkpt lat="43.67449" lon="6.92193">
        <ele>811.643</ele>
        <time>2012-12-01T09:19:46Z</time>
      </trkpt>
      <trkpt lat="43.67439" lon="6.92175">
        <ele>810.744</ele>
        <time>2012-12-01T09:19:51Z</time>
      </trkpt>
      <trkpt lat="43.67432" lon="6.92149">
        <ele>809.884</ele>
        <time>2012-12-01T09:19:56Z</time>
      </trkpt>
      <trkpt lat="43.67429" lon="6.9215">
        <ele>807.572</ele>
        <time>2012-12-01T09:20:00Z</time>
      </trkpt>
      <trkpt lat="43.67424" lon="6.9214">
        <ele>808.594</ele>
        <time>2012-12-01T09:20:04Z</time>
      </trkpt>
      <trkpt lat="43.67423" lon="6.92136">
        <ele>807.433</ele>
        <time>2012-12-01T09:20:05Z</time>
      </trkpt>
      <trkpt lat="43.67418" lon="6.92113">
        <ele>802.552</ele>
        <time>2012-12-01T09:20:11Z</time>
      </trkpt>
      <trkpt lat="43.67417" lon="6.92109">
        <ele>802.963</ele>
        <time>2012-12-01T09:20:12Z</time>
      </trkpt>
      <trkpt lat="43.67416" lon="6.92108">
        <ele>801.352</ele>
        <time>2012-12-01T09:20:14Z</time>
      </trkpt>
      <trkpt lat="43.67415" lon="6.92116">
        <ele>794.119</ele>
        <time>2012-12-01T09:20:19Z</time>
      </trkpt>
      <trkpt lat="43.67411" lon="6.92104">
        <ele>786.546</ele>
        <time>2012-12-01T09:20:25Z</time>
      </trkpt>
      <trkpt lat="43.67408" lon="6.92112">
        <ele>783.577</ele>
        <time>2012-12-01T09:20:29Z</time>
      </trkpt>
      <trkpt lat="43.67403" lon="6.92126">
        <ele>777.495</ele>
        <time>2012-12-01T09:20:34Z</time>
      </trkpt>
      <trkpt lat="43.67402" lon="6.92131">
        <ele>777.406</ele>
        <time>2012-12-01T09:20:35Z</time>
      </trkpt>
      <trkpt lat="43.67401" lon="6.92139">
        <ele>776.065</ele>
        <time>2012-12-01T09:20:37Z</time>
      </trkpt>
      <trkpt lat="43.67393" lon="6.92134">
        <ele>775.718</ele>
        <time>2012-12-01T09:20:41Z</time>
      </trkpt>
      <trkpt lat="43.67387" lon="6.92114">
        <ele>776.34</ele>
        <time>2012-12-01T09:20:45Z</time>
      </trkpt>
      <trkpt lat="43.6738" lon="6.9211">
        <ele>777.662</ele>
        <time>2012-12-01T09:20:49Z</time>
      </trkpt>
      <trkpt lat="43.67374" lon="6.921">
        <ele>776.672</ele>
        <time>2012-12-01T09:20:53Z</time>
      </trkpt>
      <trkpt lat="43.67362" lon="6.92079">
        <ele>775.493</ele>
        <time>2012-12-01T09:21:00Z</time>
      </trkpt>
      <trkpt lat="43.67356" lon="6.92063">
        <ele>774.454</ele>
        <time>2012-12-01T09:21:04Z</time>
      </trkpt>
      <trkpt lat="43.67353" lon="6.92051">
        <ele>773.303</ele>
        <time>2012-12-01T09:21:07Z</time>
      </trkpt>
      <trkpt lat="43.67349" lon="6.92056">
        <ele>768.33</ele>
        <time>2012-12-01T09:21:11Z</time>
      </trkpt>
      <trkpt lat="43.67346" lon="6.92075">
        <ele>759.828</ele>
        <time>2012-12-01T09:21:17Z</time>
      </trkpt>
      <trkpt lat="43.67346" lon="6.92079">
        <ele>759.098</ele>
        <time>2012-12-01T09:21:18Z</time>
      </trkpt>
      <trkpt lat="43.6734" lon="6.92074">
        <ele>757.209</ele>
        <time>2012-12-01T09:21:23Z</time>
      </trkpt>
      <trkpt lat="43.67329" lon="6.92059">
        <ele>756.53</ele>
        <time>2012-12-01T09:21:28Z</time>
      </trkpt>
      <trkpt lat="43.67326" lon="6.92055">
        <ele>755.542</ele>
        <time>2012-12-01T09:21:32Z</time>
      </trkpt>
      <trkpt lat="43.67322" lon="6.92043">
        <ele>751.644</ele>
        <time>2012-12-01T09:22:40Z</time>
      </trkpt>
      <trkpt lat="43.6732" lon="6.92041">
        <ele>752.035</ele>
        <time>2012-12-01T09:22:41Z</time>
      </trkpt>
      <trkpt lat="43.67317" lon="6.92046">
        <ele>750.422</ele>
        <time>2012-12-01T09:22:45Z</time>
      </trkpt>
      <trkpt lat="43.67311" lon="6.92062">
        <ele>745.72</ele>
        <time>2012-12-01T09:22:50Z</time>
      </trkpt>
      <trkpt lat="43.67305" lon="6.92061">
        <ele>741.878</ele>
        <time>2012-12-01T09:22:54Z</time>
      </trkpt>
      <trkpt lat="43.67296" lon="6.92049">
        <ele>743.691</ele>
        <time>2012-12-01T09:22:58Z</time>
      </trkpt>
      <trkpt lat="43.67293" lon="6.92049">
        <ele>741.951</ele>
        <time>2012-12-01T09:23:00Z</time>
      </trkpt>
      <trkpt lat="43.67291" lon="6.92052">
        <ele>737.807</ele>
        <time>2012-12-01T09:23:03Z</time>
      </trkpt>
      <trkpt lat="43.67285" lon="6.92047">
        <ele>736.689</ele>
        <time>2012-12-01T09:23:07Z</time>
      </trkpt>
      <trkpt lat="43.67282" lon="6.92045">
        <ele>732.528</ele>
        <time>2012-12-01T09:23:10Z</time>
      </trkpt>
      <trkpt lat="43.67278" lon="6.9206">
        <ele>728.417</ele>
        <time>2012-12-01T09:23:15Z</time>
      </trkpt>
      <trkpt lat="43.67276" lon="6.92072">
        <ele>722.923</ele>
        <time>2012-12-01T09:23:18Z</time>
      </trkpt>
      <trkpt lat="43.67277" lon="6.9209">
        <ele>717.704</ele>
        <time>2012-12-01T09:23:23Z</time>
      </trkpt>
      <trkpt lat="43.67281" lon="6.92099">
        <ele>719.51</ele>
        <time>2012-12-01T09:23:28Z</time>
      </trkpt>
      <trkpt lat="43.6728" lon="6.92098">
        <ele>719.281</ele>
        <time>2012-12-01T09:23:32Z</time>
      </trkpt>
      <trkpt lat="43.67278" lon="6.92098">
        <ele>722.494</ele>
        <time>2012-12-01T09:23:40Z</time>
      </trkpt>
      <trkpt lat="43.67279" lon="6.92103">
        <ele>732.796</ele>
        <time>2012-12-01T09:24:18Z</time>
      </trkpt>
      <trkpt lat="43.67283" lon="6.92109">
        <ele>727.431</ele>
        <time>2012-12-01T09:24:26Z</time>
      </trkpt>
      <trkpt lat="43.67289" lon="6.92122">
        <ele>726.643</ele>
        <time>2012-12-01T09:24:34Z</time>
      </trkpt>
      <trkpt lat="43.67291" lon="6.92131">
        <ele>728.544</ele>
        <time>2012-12-01T09:24:39Z</time>
      </trkpt>
      <trkpt lat="43.67295" lon="6.92141">
        <ele>729.414</ele>
        <time>2012-12-01T09:24:46Z</time>
      </trkpt>
      <trkpt lat="43.67299" lon="6.92151">
        <ele>729.814</ele>
        <time>2012-12-01T09:24:52Z</time>
      </trkpt>
      <trkpt lat="43.67301" lon="6.92159">
        <ele>730.294</ele>
        <time>2012-12-01T09:24:56Z</time>
      </trkpt>
      <trkpt lat="43.67305" lon="6.92169">
        <ele>732.264</ele>
        <time>2012-12-01T09:25:02Z</time>
      </trkpt>
      <trkpt lat="43.67309" lon="6.92181">
        <ele>733.915</ele>
        <time>2012-12-01T09:25:08Z</time>
      </trkpt>
      <trkpt lat="43.67311" lon="6.92185">
        <ele>734.935</ele>
        <time>2012-12-01T09:25:10Z</time>
      </trkpt>
      <trkpt lat="43.67315" lon="6.92194">
        <ele>735.285</ele>
        <time>2012-12-01T09:25:15Z</time>
      </trkpt>
      <trkpt lat="43.67321" lon="6.92208">
        <ele>732.473</ele>
        <time>2012-12-01T09:25:23Z</time>
      </trkpt>
      <trkpt lat="43.67325" lon="6.92222">
        <ele>734.144</ele>
        <time>2012-12-01T09:25:32Z</time>
      </trkpt>
      <trkpt lat="43.6733" lon="6.92235">
        <ele>734.535</ele>
        <time>2012-12-01T09:25:40Z</time>
      </trkpt>
      <trkpt lat="43.67335" lon="6.92249">
        <ele>735.014</ele>
        <time>2012-12-01T09:25:48Z</time>
      </trkpt>
      <trkpt lat="43.6734" lon="6.92264">
        <ele>736.054</ele>
        <time>2012-12-01T09:25:57Z</time>
      </trkpt>
      <trkpt lat="43.67347" lon="6.92281">
        <ele>736.785</ele>
        <time>2012-12-01T09:26:07Z</time>
      </trkpt>
      <trkpt lat="43.67353" lon="6.92295">
        <ele>733.793</ele>
        <time>2012-12-01T09:26:14Z</time>
      </trkpt>
      <trkpt lat="43.6736" lon="6.92315">
        <ele>736.205</ele>
        <time>2012-12-01T09:26:25Z</time>
      </trkpt>
      <trkpt lat="43.67364" lon="6.92329">
        <ele>738.455</ele>
        <time>2012-12-01T09:26:33Z</time>
      </trkpt>
      <trkpt lat="43.6737" lon="6.92347">
        <ele>740.896</ele>
        <time>2012-12-01T09:26:43Z</time>
      </trkpt>
      <trkpt lat="43.67375" lon="6.92362">
        <ele>739.595</ele>
        <time>2012-12-01T09:26:51Z</time>
      </trkpt>
      <trkpt lat="43.67379" lon="6.92382">
        <ele>743.106</ele>
        <time>2012-12-01T09:27:01Z</time>
      </trkpt>
      <trkpt lat="43.67382" lon="6.92397">
        <ele>743.365</ele>
        <time>2012-12-01T09:27:08Z</time>
      </trkpt>
      <trkpt lat="43.67384" lon="6.92415">
        <ele>746.816</ele>
        <time>2012-12-01T09:27:17Z</time>
      </trkpt>
      <trkpt lat="43.67387" lon="6.92429">
        <ele>751.837</ele>
        <time>2012-12-01T09:27:23Z</time>
      </trkpt>
      <trkpt lat="43.6739" lon="6.92444">
        <ele>753.946</ele>
        <time>2012-12-01T09:27:30Z</time>
      </trkpt>
      <trkpt lat="43.67393" lon="6.92459">
        <ele>754.056</ele>
        <time>2012-12-01T09:27:37Z</time>
      </trkpt>
      <trkpt lat="43.67397" lon="6.92477">
        <ele>754.996</ele>
        <time>2012-12-01T09:27:46Z</time>
      </trkpt>
      <trkpt lat="43.67403" lon="6.92492">
        <ele>754.767</ele>
        <time>2012-12-01T09:27:54Z</time>
      </trkpt>
      <trkpt lat="43.6741" lon="6.92509">
        <ele>753.455</ele>
        <time>2012-12-01T09:28:02Z</time>
      </trkpt>
      <trkpt lat="43.67417" lon="6.92522">
        <ele>752.546</ele>
        <time>2012-12-01T09:28:09Z</time>
      </trkpt>
      <trkpt lat="43.67425" lon="6.92536">
        <ele>753.657</ele>
        <time>2012-12-01T09:28:18Z</time>
      </trkpt>
      <trkpt lat="43.67432" lon="6.92545">
        <ele>755.489</ele>
        <time>2012-12-01T09:28:26Z</time>
      </trkpt>
      <trkpt lat="43.67439" lon="6.92553">
        <ele>756.488</ele>
        <time>2012-12-01T09:28:32Z</time>
      </trkpt>
      <trkpt lat="43.67447" lon="6.92563">
        <ele>759.427</ele>
        <time>2012-12-01T09:28:40Z</time>
      </trkpt>
      <trkpt lat="43.67458" lon="6.92575">
        <ele>761.228</ele>
        <time>2012-12-01T09:28:49Z</time>
      </trkpt>
      <trkpt lat="43.67468" lon="6.92583">
        <ele>761.928</ele>
        <time>2012-12-01T09:28:56Z</time>
      </trkpt>
      <trkpt lat="43.67479" lon="6.92591">
        <ele>764.488</ele>
        <time>2012-12-01T09:29:04Z</time>
      </trkpt>
      <trkpt lat="43.67493" lon="6.926">
        <ele>768.098</ele>
        <time>2012-12-01T09:29:14Z</time>
      </trkpt>
      <trkpt lat="43.67502" lon="6.92605">
        <ele>770.008</ele>
        <time>2012-12-01T09:29:20Z</time>
      </trkpt>
      <trkpt lat="43.67514" lon="6.9261">
        <ele>771.757</ele>
        <time>2012-12-01T09:29:28Z</time>
      </trkpt>
      <trkpt lat="43.67528" lon="6.92616">
        <ele>772.277</ele>
        <time>2012-12-01T09:29:37Z</time>
      </trkpt>
      <trkpt lat="43.67541" lon="6.92621">
        <ele>775.558</ele>
        <time>2012-12-01T09:29:46Z</time>
      </trkpt>
      <trkpt lat="43.67557" lon="6.92624">
        <ele>779.609</ele>
        <time>2012-12-01T09:29:56Z</time>
      </trkpt>
      <trkpt lat="43.67567" lon="6.92624">
        <ele>780.949</ele>
        <time>2012-12-01T09:30:03Z</time>
      </trkpt>
      <trkpt lat="43.67579" lon="6.92623">
        <ele>782.048</ele>
        <time>2012-12-01T09:30:11Z</time>
      </trkpt>
      <trkpt lat="43.67591" lon="6.9262">
        <ele>787.45</ele>
        <time>2012-12-01T09:30:20Z</time>
      </trkpt>
      <trkpt lat="43.67603" lon="6.92618">
        <ele>788.258</ele>
        <time>2012-12-01T09:30:28Z</time>
      </trkpt>
      <trkpt lat="43.67612" lon="6.92617">
        <ele>789.828</ele>
        <time>2012-12-01T09:30:34Z</time>
      </trkpt>
      <trkpt lat="43.67626" lon="6.92612">
        <ele>791.938</ele>
        <time>2012-12-01T09:30:42Z</time>
      </trkpt>
      <trkpt lat="43.67635" lon="6.92609">
        <ele>794.388</ele>
        <time>2012-12-01T09:30:48Z</time>
      </trkpt>
      <trkpt lat="43.67647" lon="6.92604">
        <ele>798.189</ele>
        <time>2012-12-01T09:30:56Z</time>
      </trkpt>
      <trkpt lat="43.67658" lon="6.92601">
        <ele>798.938</ele>
        <time>2012-12-01T09:31:04Z</time>
      </trkpt>
      <trkpt lat="43.6767" lon="6.92593">
        <ele>796.785</ele>
        <time>2012-12-01T09:31:12Z</time>
      </trkpt>
      <trkpt lat="43.67668" lon="6.92592">
        <ele>791.525</ele>
        <time>2012-12-01T09:31:21Z</time>
      </trkpt>
      <trkpt lat="43.67668" lon="6.92588">
        <ele>774.776</ele>
        <time>2012-12-01T09:35:45Z</time>
      </trkpt>
      <trkpt lat="43.67673" lon="6.92591">
        <ele>793.047</ele>
        <time>2012-12-01T09:36:34Z</time>
      </trkpt>
      <trkpt lat="43.67687" lon="6.92584">
        <ele>795.918</ele>
        <time>2012-12-01T09:36:41Z</time>
      </trkpt>
      <trkpt lat="43.67699" lon="6.9258">
        <ele>798.278</ele>
        <time>2012-12-01T09:36:48Z</time>
      </trkpt>
      <trkpt lat="43.67705" lon="6.92574">
        <ele>796.807</ele>
        <time>2012-12-01T09:36:53Z</time>
      </trkpt>
      <trkpt lat="43.67716" lon="6.92569">
        <ele>797.006</ele>
        <time>2012-12-01T09:37:01Z</time>
      </trkpt>
      <trkpt lat="43.67727" lon="6.92563">
        <ele>795.886</ele>
        <time>2012-12-01T09:37:08Z</time>
      </trkpt>
      <trkpt lat="43.67737" lon="6.92559">
        <ele>797.347</ele>
        <time>2012-12-01T09:37:15Z</time>
      </trkpt>
      <trkpt lat="43.67751" lon="6.92553">
        <ele>802.629</ele>
        <time>2012-12-01T09:37:25Z</time>
      </trkpt>
      <trkpt lat="43.67757" lon="6.92548">
        <ele>803.307</ele>
        <time>2012-12-01T09:37:32Z</time>
      </trkpt>
      <trkpt lat="43.6776" lon="6.92541">
        <ele>787.577</ele>
        <time>2012-12-01T09:39:17Z</time>
      </trkpt>
      <trkpt lat="43.6777" lon="6.92534">
        <ele>792.059</ele>
        <time>2012-12-01T09:39:25Z</time>
      </trkpt>
      <trkpt lat="43.67782" lon="6.92529">
        <ele>799.622</ele>
        <time>2012-12-01T09:39:33Z</time>
      </trkpt>
      <trkpt lat="43.67794" lon="6.92523">
        <ele>803.028</ele>
        <time>2012-12-01T09:39:42Z</time>
      </trkpt>
      <trkpt lat="43.67806" lon="6.92518">
        <ele>807.629</ele>
        <time>2012-12-01T09:39:50Z</time>
      </trkpt>
      <trkpt lat="43.67815" lon="6.92515">
        <ele>813.02</ele>
        <time>2012-12-01T09:39:57Z</time>
      </trkpt>
      <trkpt lat="43.67823" lon="6.9251">
        <ele>810.942</ele>
        <time>2012-12-01T09:40:04Z</time>
      </trkpt>
      <trkpt lat="43.67832" lon="6.92504">
        <ele>811.178</ele>
        <time>2012-12-01T09:40:10Z</time>
      </trkpt>
      <trkpt lat="43.67845" lon="6.92499">
        <ele>814.169</ele>
        <time>2012-12-01T09:40:19Z</time>
      </trkpt>
      <trkpt lat="43.67855" lon="6.92494">
        <ele>814.968</ele>
        <time>2012-12-01T09:40:26Z</time>
      </trkpt>
      <trkpt lat="43.67863" lon="6.9249">
        <ele>817.058</ele>
        <time>2012-12-01T09:40:32Z</time>
      </trkpt>
      <trkpt lat="43.67873" lon="6.92486">
        <ele>818.489</ele>
        <time>2012-12-01T09:40:38Z</time>
      </trkpt>
      <trkpt lat="43.67883" lon="6.92481">
        <ele>820.178</ele>
        <time>2012-12-01T09:40:44Z</time>
      </trkpt>
      <trkpt lat="43.67891" lon="6.92475">
        <ele>820.335</ele>
        <time>2012-12-01T09:40:50Z</time>
      </trkpt>
      <trkpt lat="43.67903" lon="6.92467">
        <ele>823.378</ele>
        <time>2012-12-01T09:41:00Z</time>
      </trkpt>
      <trkpt lat="43.67912" lon="6.92462">
        <ele>821.877</ele>
        <time>2012-12-01T09:41:08Z</time>
      </trkpt>
      <trkpt lat="43.67913" lon="6.9246">
        <ele>820.726</ele>
        <time>2012-12-01T09:41:16Z</time>
      </trkpt>
      <trkpt lat="43.67913" lon="6.92461">
        <ele>820.756</ele>
        <time>2012-12-01T09:41:19Z</time>
      </trkpt>
      <trkpt lat="43.67923" lon="6.92453">
        <ele>822.598</ele>
        <time>2012-12-01T09:41:26Z</time>
      </trkpt>
      <trkpt lat="43.67934" lon="6.92446">
        <ele>823.408</ele>
        <time>2012-12-01T09:41:35Z</time>
      </trkpt>
      <trkpt lat="43.67942" lon="6.92436">
        <ele>824.377</ele>
        <time>2012-12-01T09:41:42Z</time>
      </trkpt>
      <trkpt lat="43.67949" lon="6.92429">
        <ele>826.113</ele>
        <time>2012-12-01T09:41:50Z</time>
      </trkpt>
      <trkpt lat="43.67951" lon="6.92427">
        <ele>826.367</ele>
        <time>2012-12-01T09:41:52Z</time>
      </trkpt>
      <trkpt lat="43.6796" lon="6.92416">
        <ele>828.988</ele>
        <time>2012-12-01T09:42:00Z</time>
      </trkpt>
      <trkpt lat="43.67968" lon="6.92401">
        <ele>831.358</ele>
        <time>2012-12-01T09:42:09Z</time>
      </trkpt>
      <trkpt lat="43.67974" lon="6.92392">
        <ele>833.829</ele>
        <time>2012-12-01T09:42:15Z</time>
      </trkpt>
      <trkpt lat="43.67981" lon="6.9238">
        <ele>837.478</ele>
        <time>2012-12-01T09:42:23Z</time>
      </trkpt>
      <trkpt lat="43.67988" lon="6.92369">
        <ele>839.439</ele>
        <time>2012-12-01T09:42:29Z</time>
      </trkpt>
      <trkpt lat="43.67995" lon="6.92354">
        <ele>835.666</ele>
        <time>2012-12-01T09:42:37Z</time>
      </trkpt>
      <trkpt lat="43.68002" lon="6.92344">
        <ele>838.338</ele>
        <time>2012-12-01T09:42:44Z</time>
      </trkpt>
      <trkpt lat="43.68006" lon="6.92341">
        <ele>841.659</ele>
        <time>2012-12-01T09:42:48Z</time>
      </trkpt>
      <trkpt lat="43.68011" lon="6.92336">
        <ele>844.639</ele>
        <time>2012-12-01T09:42:54Z</time>
      </trkpt>
      <trkpt lat="43.68021" lon="6.92325">
        <ele>846.979</ele>
        <time>2012-12-01T09:43:02Z</time>
      </trkpt>
      <trkpt lat="43.6803" lon="6.92319">
        <ele>848.088</ele>
        <time>2012-12-01T09:43:09Z</time>
      </trkpt>
      <trkpt lat="43.6804" lon="6.92312">
        <ele>847.077</ele>
        <time>2012-12-01T09:43:17Z</time>
      </trkpt>
      <trkpt lat="43.68046" lon="6.9231">
        <ele>848.067</ele>
        <time>2012-12-01T09:43:21Z</time>
      </trkpt>
      <trkpt lat="43.68049" lon="6.9231">
        <ele>849.248</ele>
        <time>2012-12-01T09:43:24Z</time>
      </trkpt>
      <trkpt lat="43.68051" lon="6.92323">
        <ele>848.727</ele>
        <time>2012-12-01T09:43:32Z</time>
      </trkpt>
      <trkpt lat="43.68051" lon="6.92324">
        <ele>848.596</ele>
        <time>2012-12-01T09:43:33Z</time>
      </trkpt>
      <trkpt lat="43.68046" lon="6.92336">
        <ele>842.444</ele>
        <time>2012-12-01T09:43:41Z</time>
      </trkpt>
      <trkpt lat="43.68043" lon="6.92347">
        <ele>841.265</ele>
        <time>2012-12-01T09:43:48Z</time>
      </trkpt>
      <trkpt lat="43.68044" lon="6.92358">
        <ele>844.478</ele>
        <time>2012-12-01T09:43:54Z</time>
      </trkpt>
      <trkpt lat="43.68043" lon="6.92374">
        <ele>848.849</ele>
        <time>2012-12-01T09:44:02Z</time>
      </trkpt>
      <trkpt lat="43.68043" lon="6.92387">
        <ele>851.668</ele>
        <time>2012-12-01T09:44:09Z</time>
      </trkpt>
      <trkpt lat="43.68042" lon="6.92401">
        <ele>854.618</ele>
        <time>2012-12-01T09:44:16Z</time>
      </trkpt>
      <trkpt lat="43.68042" lon="6.92417">
        <ele>854.947</ele>
        <time>2012-12-01T09:44:24Z</time>
      </trkpt>
      <trkpt lat="43.68043" lon="6.92431">
        <ele>855.717</ele>
        <time>2012-12-01T09:44:31Z</time>
      </trkpt>
      <trkpt lat="43.68042" lon="6.92444">
        <ele>858.469</ele>
        <time>2012-12-01T09:44:37Z</time>
      </trkpt>
      <trkpt lat="43.68042" lon="6.92452">
        <ele>858.948</ele>
        <time>2012-12-01T09:44:41Z</time>
      </trkpt>
      <trkpt lat="43.68041" lon="6.92464">
        <ele>860.928</ele>
        <time>2012-12-01T09:44:48Z</time>
      </trkpt>
      <trkpt lat="43.68041" lon="6.92476">
        <ele>861.688</ele>
        <time>2012-12-01T09:44:54Z</time>
      </trkpt>
      <trkpt lat="43.68041" lon="6.92485">
        <ele>863.348</ele>
        <time>2012-12-01T09:44:59Z</time>
      </trkpt>
      <trkpt lat="43.68048" lon="6.92488">
        <ele>864.058</ele>
        <time>2012-12-01T09:45:05Z</time>
      </trkpt>
      <trkpt lat="43.68051" lon="6.92484">
        <ele>860.167</ele>
        <time>2012-12-01T09:45:08Z</time>
      </trkpt>
      <trkpt lat="43.68055" lon="6.92468">
        <ele>859.777</ele>
        <time>2012-12-01T09:45:18Z</time>
      </trkpt>
      <trkpt lat="43.68061" lon="6.92452">
        <ele>860.737</ele>
        <time>2012-12-01T09:45:27Z</time>
      </trkpt>
      <trkpt lat="43.68065" lon="6.92438">
        <ele>863.157</ele>
        <time>2012-12-01T09:45:35Z</time>
      </trkpt>
      <trkpt lat="43.68071" lon="6.92423">
        <ele>865.558</ele>
        <time>2012-12-01T09:45:44Z</time>
      </trkpt>
      <trkpt lat="43.68074" lon="6.92416">
        <ele>867.399</ele>
        <time>2012-12-01T09:45:49Z</time>
      </trkpt>
      <trkpt lat="43.68081" lon="6.92408">
        <ele>868.548</ele>
        <time>2012-12-01T09:45:54Z</time>
      </trkpt>
      <trkpt lat="43.68084" lon="6.92405">
        <ele>868.637</ele>
        <time>2012-12-01T09:45:58Z</time>
      </trkpt>
      <trkpt lat="43.6809" lon="6.92399">
        <ele>869.037</ele>
        <time>2012-12-01T09:46:03Z</time>
      </trkpt>
      <trkpt lat="43.68098" lon="6.92388">
        <ele>870.427</ele>
        <time>2012-12-01T09:46:10Z</time>
      </trkpt>
      <trkpt lat="43.68105" lon="6.9238">
        <ele>870.857</ele>
        <time>2012-12-01T09:46:16Z</time>
      </trkpt>
      <trkpt lat="43.68115" lon="6.9237">
        <ele>870.437</ele>
        <time>2012-12-01T09:46:24Z</time>
      </trkpt>
      <trkpt lat="43.68125" lon="6.92359">
        <ele>872.378</ele>
        <time>2012-12-01T09:46:34Z</time>
      </trkpt>
      <trkpt lat="43.68127" lon="6.92357">
        <ele>872.778</ele>
        <time>2012-12-01T09:46:36Z</time>
      </trkpt>
      <trkpt lat="43.68136" lon="6.92345">
        <ele>873.867</ele>
        <time>2012-12-01T09:46:45Z</time>
      </trkpt>
      <trkpt lat="43.68146" lon="6.92333">
        <ele>875.988</ele>
        <time>2012-12-01T09:46:54Z</time>
      </trkpt>
      <trkpt lat="43.68155" lon="6.92327">
        <ele>878.097</ele>
        <time>2012-12-01T09:47:01Z</time>
      </trkpt>
      <trkpt lat="43.68165" lon="6.92322">
        <ele>879.998</ele>
        <time>2012-12-01T09:47:08Z</time>
      </trkpt>
      <trkpt lat="43.68176" lon="6.92321">
        <ele>881.978</ele>
        <time>2012-12-01T09:47:16Z</time>
      </trkpt>
      <trkpt lat="43.68184" lon="6.92329">
        <ele>883.129</ele>
        <time>2012-12-01T09:47:22Z</time>
      </trkpt>
      <trkpt lat="43.68184" lon="6.92337">
        <ele>883.731</ele>
        <time>2012-12-01T09:47:25Z</time>
      </trkpt>
      <trkpt lat="43.68181" lon="6.92348">
        <ele>881.666</ele>
        <time>2012-12-01T09:47:32Z</time>
      </trkpt>
      <trkpt lat="43.68183" lon="6.92353">
        <ele>868.696</ele>
        <time>2012-12-01T09:54:55Z</time>
      </trkpt>
      <trkpt lat="43.68182" lon="6.92352">
        <ele>877.097</ele>
        <time>2012-12-01T09:57:07Z</time>
      </trkpt>
      <trkpt lat="43.6818" lon="6.92353">
        <ele>877.126</ele>
        <time>2012-12-01T09:57:31Z</time>
      </trkpt>
      <trkpt lat="43.6818" lon="6.92354">
        <ele>876.927</ele>
        <time>2012-12-01T09:57:33Z</time>
      </trkpt>
      <trkpt lat="43.68176" lon="6.92363">
        <ele>878.669</ele>
        <time>2012-12-01T09:57:39Z</time>
      </trkpt>
      <trkpt lat="43.68166" lon="6.92385">
        <ele>881.448</ele>
        <time>2012-12-01T09:57:46Z</time>
      </trkpt>
      <trkpt lat="43.68158" lon="6.92408">
        <ele>883.299</ele>
        <time>2012-12-01T09:57:53Z</time>
      </trkpt>
      <trkpt lat="43.68149" lon="6.92438">
        <ele>884.023</ele>
        <time>2012-12-01T09:58:02Z</time>
      </trkpt>
      <trkpt lat="43.68139" lon="6.92466">
        <ele>885.839</ele>
        <time>2012-12-01T09:58:12Z</time>
      </trkpt>
      <trkpt lat="43.68133" lon="6.92486">
        <ele>888.024</ele>
        <time>2012-12-01T09:58:19Z</time>
      </trkpt>
      <trkpt lat="43.68123" lon="6.92513">
        <ele>889.908</ele>
        <time>2012-12-01T09:58:28Z</time>
      </trkpt>
      <trkpt lat="43.68115" lon="6.92538">
        <ele>889.506</ele>
        <time>2012-12-01T09:58:34Z</time>
      </trkpt>
      <trkpt lat="43.68107" lon="6.92566">
        <ele>888.605</ele>
        <time>2012-12-01T09:58:38Z</time>
      </trkpt>
      <trkpt lat="43.681" lon="6.92622">
        <ele>889.089</ele>
        <time>2012-12-01T09:58:46Z</time>
      </trkpt>
      <trkpt lat="43.68095" lon="6.92662">
        <ele>890.871</ele>
        <time>2012-12-01T09:58:53Z</time>
      </trkpt>
      <trkpt lat="43.68094" lon="6.927">
        <ele>891.237</ele>
        <time>2012-12-01T09:59:00Z</time>
      </trkpt>
      <trkpt lat="43.68086" lon="6.92752">
        <ele>891.38</ele>
        <time>2012-12-01T09:59:10Z</time>
      </trkpt>
      <trkpt lat="43.68079" lon="6.92781">
        <ele>891.338</ele>
        <time>2012-12-01T09:59:16Z</time>
      </trkpt>
      <trkpt lat="43.68065" lon="6.92814">
        <ele>892.037</ele>
        <time>2012-12-01T09:59:24Z</time>
      </trkpt>
      <trkpt lat="43.6806" lon="6.92844">
        <ele>892.747</ele>
        <time>2012-12-01T09:59:30Z</time>
      </trkpt>
      <trkpt lat="43.68056" lon="6.92893">
        <ele>893.978</ele>
        <time>2012-12-01T09:59:40Z</time>
      </trkpt>
      <trkpt lat="43.68059" lon="6.92919">
        <ele>895.109</ele>
        <time>2012-12-01T09:59:47Z</time>
      </trkpt>
      <trkpt lat="43.68058" lon="6.92929">
        <ele>895.628</ele>
        <time>2012-12-01T09:59:51Z</time>
      </trkpt>
      <trkpt lat="43.68055" lon="6.92936">
        <ele>896.098</ele>
        <time>2012-12-01T09:59:56Z</time>
      </trkpt>
      <trkpt lat="43.68046" lon="6.92954">
        <ele>896.278</ele>
        <time>2012-12-01T10:00:03Z</time>
      </trkpt>
      <trkpt lat="43.68046" lon="6.92961">
        <ele>896.769</ele>
        <time>2012-12-01T10:00:05Z</time>
      </trkpt>
      <trkpt lat="43.68049" lon="6.92968">
        <ele>897.368</ele>
        <time>2012-12-01T10:00:09Z</time>
      </trkpt>
      <trkpt lat="43.68048" lon="6.92969">
        <ele>897.228</ele>
        <time>2012-12-01T10:00:10Z</time>
      </trkpt>
      <trkpt lat="43.68041" lon="6.92978">
        <ele>896.827</ele>
        <time>2012-12-01T10:00:16Z</time>
      </trkpt>
      <trkpt lat="43.68033" lon="6.92989">
        <ele>895.775</ele>
        <time>2012-12-01T10:00:21Z</time>
      </trkpt>
      <trkpt lat="43.68023" lon="6.92992">
        <ele>895.316</ele>
        <time>2012-12-01T10:00:25Z</time>
      </trkpt>
      <trkpt lat="43.6802" lon="6.92993">
        <ele>895.126</ele>
        <time>2012-12-01T10:00:26Z</time>
      </trkpt>
      <trkpt lat="43.6802" lon="6.92995">
        <ele>894.667</ele>
        <time>2012-12-01T10:00:31Z</time>
      </trkpt>
      <trkpt lat="43.68021" lon="6.92993">
        <ele>892.912</ele>
        <time>2012-12-01T10:08:16Z</time>
      </trkpt>
      <trkpt lat="43.68023" lon="6.92992">
        <ele>892.818</ele>
        <time>2012-12-01T10:08:18Z</time>
      </trkpt>
      <trkpt lat="43.68029" lon="6.92988">
        <ele>892.167</ele>
        <time>2012-12-01T10:08:25Z</time>
      </trkpt>
      <trkpt lat="43.68028" lon="6.92988">
        <ele>892.776</ele>
        <time>2012-12-01T10:08:44Z</time>
      </trkpt>
      <trkpt lat="43.68019" lon="6.92998">
        <ele>892.195</ele>
        <time>2012-12-01T10:08:50Z</time>
      </trkpt>
      <trkpt lat="43.68013" lon="6.93006">
        <ele>890.242</ele>
        <time>2012-12-01T10:08:53Z</time>
      </trkpt>
      <trkpt lat="43.68011" lon="6.93028">
        <ele>887.022</ele>
        <time>2012-12-01T10:08:58Z</time>
      </trkpt>
      <trkpt lat="43.68006" lon="6.93042">
        <ele>883.879</ele>
        <time>2012-12-01T10:09:01Z</time>
      </trkpt>
      <trkpt lat="43.67998" lon="6.93062">
        <ele>878.85</ele>
        <time>2012-12-01T10:09:06Z</time>
      </trkpt>
      <trkpt lat="43.67997" lon="6.93085">
        <ele>875.741</ele>
        <time>2012-12-01T10:09:11Z</time>
      </trkpt>
      <trkpt lat="43.67994" lon="6.93103">
        <ele>871.949</ele>
        <time>2012-12-01T10:09:15Z</time>
      </trkpt>
      <trkpt lat="43.67985" lon="6.93127">
        <ele>865.407</ele>
        <time>2012-12-01T10:09:20Z</time>
      </trkpt>
      <trkpt lat="43.67982" lon="6.93131">
        <ele>864.306</ele>
        <time>2012-12-01T10:09:21Z</time>
      </trkpt>
      <trkpt lat="43.6797" lon="6.93148">
        <ele>859.309</ele>
        <time>2012-12-01T10:09:26Z</time>
      </trkpt>
      <trkpt lat="43.67967" lon="6.93151">
        <ele>858.424</ele>
        <time>2012-12-01T10:09:30Z</time>
      </trkpt>
      <trkpt lat="43.67964" lon="6.93156">
        <ele>857.834</ele>
        <time>2012-12-01T10:09:41Z</time>
      </trkpt>
      <trkpt lat="43.6796" lon="6.93164">
        <ele>856.331</ele>
        <time>2012-12-01T10:09:43Z</time>
      </trkpt>
      <trkpt lat="43.67952" lon="6.93188">
        <ele>851.958</ele>
        <time>2012-12-01T10:09:47Z</time>
      </trkpt>
      <trkpt lat="43.67943" lon="6.93206">
        <ele>848.477</ele>
        <time>2012-12-01T10:09:50Z</time>
      </trkpt>
      <trkpt lat="43.67946" lon="6.93225">
        <ele>845.72</ele>
        <time>2012-12-01T10:09:54Z</time>
      </trkpt>
      <trkpt lat="43.67948" lon="6.93226">
        <ele>844.634</ele>
        <time>2012-12-01T10:09:57Z</time>
      </trkpt>
      <trkpt lat="43.67948" lon="6.93223">
        <ele>845.238</ele>
        <time>2012-12-01T10:10:32Z</time>
      </trkpt>
      <trkpt lat="43.67957" lon="6.93234">
        <ele>844.947</ele>
        <time>2012-12-01T10:10:36Z</time>
      </trkpt>
      <trkpt lat="43.6797" lon="6.93259">
        <ele>840.991</ele>
        <time>2012-12-01T10:10:41Z</time>
      </trkpt>
      <trkpt lat="43.67974" lon="6.93264">
        <ele>839.781</ele>
        <time>2012-12-01T10:10:42Z</time>
      </trkpt>
      <trkpt lat="43.67987" lon="6.93278">
        <ele>836.33</ele>
        <time>2012-12-01T10:10:45Z</time>
      </trkpt>
      <trkpt lat="43.68007" lon="6.93305">
        <ele>831.172</ele>
        <time>2012-12-01T10:10:50Z</time>
      </trkpt>
      <trkpt lat="43.68009" lon="6.93313">
        <ele>828.95</ele>
        <time>2012-12-01T10:10:52Z</time>
      </trkpt>
      <trkpt lat="43.68001" lon="6.93314">
        <ele>826.091</ele>
        <time>2012-12-01T10:10:56Z</time>
      </trkpt>
      <trkpt lat="43.67977" lon="6.93305">
        <ele>825.024</ele>
        <time>2012-12-01T10:11:02Z</time>
      </trkpt>
      <trkpt lat="43.67972" lon="6.93304">
        <ele>823.974</ele>
        <time>2012-12-01T10:11:04Z</time>
      </trkpt>
      <trkpt lat="43.67961" lon="6.93302">
        <ele>820.311</ele>
        <time>2012-12-01T10:11:09Z</time>
      </trkpt>
      <trkpt lat="43.67942" lon="6.93309">
        <ele>813.37</ele>
        <time>2012-12-01T10:11:15Z</time>
      </trkpt>
      <trkpt lat="43.67927" lon="6.93314">
        <ele>808.49</ele>
        <time>2012-12-01T10:11:20Z</time>
      </trkpt>
      <trkpt lat="43.67924" lon="6.93315">
        <ele>807.801</ele>
        <time>2012-12-01T10:11:21Z</time>
      </trkpt>
      <trkpt lat="43.67914" lon="6.93322">
        <ele>804.635</ele>
        <time>2012-12-01T10:11:25Z</time>
      </trkpt>
      <trkpt lat="43.67907" lon="6.93327">
        <ele>803.01</ele>
        <time>2012-12-01T10:11:27Z</time>
      </trkpt>
      <trkpt lat="43.67897" lon="6.93334">
        <ele>800.14</ele>
        <time>2012-12-01T10:11:30Z</time>
      </trkpt>
      <trkpt lat="43.67879" lon="6.93343">
        <ele>797.121</ele>
        <time>2012-12-01T10:11:34Z</time>
      </trkpt>
      <trkpt lat="43.67867" lon="6.9334">
        <ele>794.162</ele>
        <time>2012-12-01T10:11:39Z</time>
      </trkpt>
      <trkpt lat="43.67864" lon="6.93339">
        <ele>793.261</ele>
        <time>2012-12-01T10:11:40Z</time>
      </trkpt>
      <trkpt lat="43.67851" lon="6.93337">
        <ele>789.562</ele>
        <time>2012-12-01T10:11:45Z</time>
      </trkpt>
      <trkpt lat="43.67848" lon="6.93336">
        <ele>789.031</ele>
        <time>2012-12-01T10:11:46Z</time>
      </trkpt>
      <trkpt lat="43.67833" lon="6.93321">
        <ele>784.111</ele>
        <time>2012-12-01T10:11:52Z</time>
      </trkpt>
      <trkpt lat="43.67823" lon="6.93314">
        <ele>781.851</ele>
        <time>2012-12-01T10:11:55Z</time>
      </trkpt>
      <trkpt lat="43.67805" lon="6.93303">
        <ele>777.381</ele>
        <time>2012-12-01T10:12:01Z</time>
      </trkpt>
      <trkpt lat="43.678" lon="6.93302">
        <ele>775.791</ele>
        <time>2012-12-01T10:12:03Z</time>
      </trkpt>
      <trkpt lat="43.67788" lon="6.93291">
        <ele>772.853</ele>
        <time>2012-12-01T10:12:08Z</time>
      </trkpt>
      <trkpt lat="43.67779" lon="6.93287">
        <ele>770.862</ele>
        <time>2012-12-01T10:12:11Z</time>
      </trkpt>
      <trkpt lat="43.67763" lon="6.9328">
        <ele>766.932</ele>
        <time>2012-12-01T10:12:17Z</time>
      </trkpt>
      <trkpt lat="43.67757" lon="6.93277">
        <ele>765.401</ele>
        <time>2012-12-01T10:12:19Z</time>
      </trkpt>
      <trkpt lat="43.67743" lon="6.93265">
        <ele>762.032</ele>
        <time>2012-12-01T10:12:24Z</time>
      </trkpt>
      <trkpt lat="43.67738" lon="6.9326">
        <ele>760.371</ele>
        <time>2012-12-01T10:12:26Z</time>
      </trkpt>
      <trkpt lat="43.67727" lon="6.93252">
        <ele>758.552</ele>
        <time>2012-12-01T10:12:30Z</time>
      </trkpt>
      <trkpt lat="43.67717" lon="6.93253">
        <ele>754.511</ele>
        <time>2012-12-01T10:12:35Z</time>
      </trkpt>
      <trkpt lat="43.67708" lon="6.9325">
        <ele>751.21</ele>
        <time>2012-12-01T10:12:39Z</time>
      </trkpt>
      <trkpt lat="43.67701" lon="6.93248">
        <ele>748.491</ele>
        <time>2012-12-01T10:12:42Z</time>
      </trkpt>
      <trkpt lat="43.6769" lon="6.93254">
        <ele>743.72</ele>
        <time>2012-12-01T10:12:47Z</time>
      </trkpt>
      <trkpt lat="43.67678" lon="6.93263">
        <ele>739.288</ele>
        <time>2012-12-01T10:12:51Z</time>
      </trkpt>
      <trkpt lat="43.6767" lon="6.93274">
        <ele>736.769</ele>
        <time>2012-12-01T10:12:54Z</time>
      </trkpt>
      <trkpt lat="43.67654" lon="6.93289">
        <ele>731.239</ele>
        <time>2012-12-01T10:13:00Z</time>
      </trkpt>
      <trkpt lat="43.67652" lon="6.93289">
        <ele>730.206</ele>
        <time>2012-12-01T10:13:07Z</time>
      </trkpt>
      <trkpt lat="43.67649" lon="6.93284">
        <ele>738.449</ele>
        <time>2012-12-01T10:15:23Z</time>
      </trkpt>
      <trkpt lat="43.6765" lon="6.93282">
        <ele>738.318</ele>
        <time>2012-12-01T10:15:25Z</time>
      </trkpt>
      <trkpt lat="43.67649" lon="6.93281">
        <ele>738.167</ele>
        <time>2012-12-01T10:15:31Z</time>
      </trkpt>
      <trkpt lat="43.67646" lon="6.93279">
        <ele>732.167</ele>
        <time>2012-12-01T10:19:36Z</time>
      </trkpt>
      <trkpt lat="43.6765" lon="6.93286">
        <ele>729.177</ele>
        <time>2012-12-01T10:19:43Z</time>
      </trkpt>
      <trkpt lat="43.67643" lon="6.933">
        <ele>726.542</ele>
        <time>2012-12-01T10:19:48Z</time>
      </trkpt>
      <trkpt lat="43.67634" lon="6.93312">
        <ele>722.911</ele>
        <time>2012-12-01T10:19:53Z</time>
      </trkpt>
      <trkpt lat="43.67627" lon="6.93323">
        <ele>720.46</ele>
        <time>2012-12-01T10:19:57Z</time>
      </trkpt>
      <trkpt lat="43.67619" lon="6.93328">
        <ele>717.429</ele>
        <time>2012-12-01T10:20:00Z</time>
      </trkpt>
      <trkpt lat="43.67613" lon="6.93345">
        <ele>713.38</ele>
        <time>2012-12-01T10:20:05Z</time>
      </trkpt>
      <trkpt lat="43.67609" lon="6.9335">
        <ele>711.82</ele>
        <time>2012-12-01T10:20:07Z</time>
      </trkpt>
      <trkpt lat="43.67603" lon="6.93354">
        <ele>709.54</ele>
        <time>2012-12-01T10:20:10Z</time>
      </trkpt>
      <trkpt lat="43.67596" lon="6.93355">
        <ele>706.782</ele>
        <time>2012-12-01T10:20:15Z</time>
      </trkpt>
      <trkpt lat="43.67586" lon="6.93368">
        <ele>702.531</ele>
        <time>2012-12-01T10:20:21Z</time>
      </trkpt>
      <trkpt lat="43.67579" lon="6.93379">
        <ele>698.725</ele>
        <time>2012-12-01T10:20:25Z</time>
      </trkpt>
      <trkpt lat="43.67571" lon="6.93383">
        <ele>693.158</ele>
        <time>2012-12-01T10:20:30Z</time>
      </trkpt>
      <trkpt lat="43.67565" lon="6.93382">
        <ele>690.31</ele>
        <time>2012-12-01T10:20:33Z</time>
      </trkpt>
      <trkpt lat="43.67555" lon="6.93389">
        <ele>687.41</ele>
        <time>2012-12-01T10:20:38Z</time>
      </trkpt>
      <trkpt lat="43.67547" lon="6.93385">
        <ele>684.661</ele>
        <time>2012-12-01T10:20:42Z</time>
      </trkpt>
      <trkpt lat="43.67536" lon="6.93384">
        <ele>681.752</ele>
        <time>2012-12-01T10:20:48Z</time>
      </trkpt>
      <trkpt lat="43.67531" lon="6.93392">
        <ele>679.101</ele>
        <time>2012-12-01T10:20:51Z</time>
      </trkpt>
      <trkpt lat="43.6752" lon="6.93396">
        <ele>674.67</ele>
        <time>2012-12-01T10:20:56Z</time>
      </trkpt>
      <trkpt lat="43.6751" lon="6.93389">
        <ele>671.25</ele>
        <time>2012-12-01T10:21:00Z</time>
      </trkpt>
      <trkpt lat="43.67504" lon="6.93389">
        <ele>668.937</ele>
        <time>2012-12-01T10:21:02Z</time>
      </trkpt>
      <trkpt lat="43.67489" lon="6.93382">
        <ele>662.979</ele>
        <time>2012-12-01T10:21:08Z</time>
      </trkpt>
      <trkpt lat="43.67473" lon="6.93379">
        <ele>658.521</ele>
        <time>2012-12-01T10:21:13Z</time>
      </trkpt>
      <trkpt lat="43.67451" lon="6.93374">
        <ele>652.42</ele>
        <time>2012-12-01T10:21:20Z</time>
      </trkpt>
      <trkpt lat="43.67437" lon="6.93376">
        <ele>648.47</ele>
        <time>2012-12-01T10:21:24Z</time>
      </trkpt>
      <trkpt lat="43.67424" lon="6.93371">
        <ele>644.96</ele>
        <time>2012-12-01T10:21:28Z</time>
      </trkpt>
      <trkpt lat="43.67413" lon="6.93362">
        <ele>642.371</ele>
        <time>2012-12-01T10:21:32Z</time>
      </trkpt>
      <trkpt lat="43.67397" lon="6.93362">
        <ele>639.891</ele>
        <time>2012-12-01T10:21:37Z</time>
      </trkpt>
      <trkpt lat="43.67395" lon="6.93366">
        <ele>638.45</ele>
        <time>2012-12-01T10:21:38Z</time>
      </trkpt>
      <trkpt lat="43.67387" lon="6.93387">
        <ele>634.39</ele>
        <time>2012-12-01T10:21:43Z</time>
      </trkpt>
      <trkpt lat="43.67385" lon="6.93395">
        <ele>633.091</ele>
        <time>2012-12-01T10:21:45Z</time>
      </trkpt>
      <trkpt lat="43.67389" lon="6.93417">
        <ele>630.552</ele>
        <time>2012-12-01T10:21:49Z</time>
      </trkpt>
      <trkpt lat="43.67396" lon="6.93442">
        <ele>629.514</ele>
        <time>2012-12-01T10:21:53Z</time>
      </trkpt>
      <trkpt lat="43.67406" lon="6.93469">
        <ele>628.345</ele>
        <time>2012-12-01T10:21:58Z</time>
      </trkpt>
      <trkpt lat="43.67406" lon="6.93464">
        <ele>627.204</ele>
        <time>2012-12-01T10:22:01Z</time>
      </trkpt>
      <trkpt lat="43.67402" lon="6.9346">
        <ele>627.066</ele>
        <time>2012-12-01T10:22:05Z</time>
      </trkpt>
      <trkpt lat="43.67402" lon="6.93459">
        <ele>627.016</ele>
        <time>2012-12-01T10:22:10Z</time>
      </trkpt>
      <trkpt lat="43.67402" lon="6.93461">
        <ele>626.356</ele>
        <time>2012-12-01T10:22:12Z</time>
      </trkpt>
      <trkpt lat="43.67402" lon="6.93465">
        <ele>626.827</ele>
        <time>2012-12-01T10:22:17Z</time>
      </trkpt>
      <trkpt lat="43.674" lon="6.93465">
        <ele>626.987</ele>
        <time>2012-12-01T10:22:20Z</time>
      </trkpt>
      <trkpt lat="43.67399" lon="6.93465">
        <ele>627.687</ele>
        <time>2012-12-01T10:22:25Z</time>
      </trkpt>
      <trkpt lat="43.67398" lon="6.93462">
        <ele>632.677</ele>
        <time>2012-12-01T10:26:12Z</time>
      </trkpt>
      <trkpt lat="43.67394" lon="6.93457">
        <ele>632.406</ele>
        <time>2012-12-01T10:26:16Z</time>
      </trkpt>
      <trkpt lat="43.67381" lon="6.93442">
        <ele>630.495</ele>
        <time>2012-12-01T10:26:23Z</time>
      </trkpt>
      <trkpt lat="43.67372" lon="6.93435">
        <ele>629.425</ele>
        <time>2012-12-01T10:26:26Z</time>
      </trkpt>
      <trkpt lat="43.67365" lon="6.93428">
        <ele>628.455</ele>
        <time>2012-12-01T10:26:28Z</time>
      </trkpt>
      <trkpt lat="43.67345" lon="6.93396">
        <ele>625.114</ele>
        <time>2012-12-01T10:26:34Z</time>
      </trkpt>
      <trkpt lat="43.67343" lon="6.93391">
        <ele>624.213</ele>
        <time>2012-12-01T10:26:35Z</time>
      </trkpt>
      <trkpt lat="43.67332" lon="6.93364">
        <ele>618.851</ele>
        <time>2012-12-01T10:26:40Z</time>
      </trkpt>
      <trkpt lat="43.67326" lon="6.93332">
        <ele>616.684</ele>
        <time>2012-12-01T10:26:45Z</time>
      </trkpt>
      <trkpt lat="43.67327" lon="6.93311">
        <ele>615.533</ele>
        <time>2012-12-01T10:26:48Z</time>
      </trkpt>
      <trkpt lat="43.67324" lon="6.9329">
        <ele>614.363</ele>
        <time>2012-12-01T10:26:51Z</time>
      </trkpt>
      <trkpt lat="43.6732" lon="6.93268">
        <ele>611.971</ele>
        <time>2012-12-01T10:26:54Z</time>
      </trkpt>
      <trkpt lat="43.67318" lon="6.93244">
        <ele>610.602</ele>
        <time>2012-12-01T10:26:57Z</time>
      </trkpt>
      <trkpt lat="43.67312" lon="6.93187">
        <ele>609.404</ele>
        <time>2012-12-01T10:27:04Z</time>
      </trkpt>
      <trkpt lat="43.67314" lon="6.93137">
        <ele>608.335</ele>
        <time>2012-12-01T10:27:11Z</time>
      </trkpt>
      <trkpt lat="43.67325" lon="6.93107">
        <ele>605.803</ele>
        <time>2012-12-01T10:27:16Z</time>
      </trkpt>
      <trkpt lat="43.67334" lon="6.93092">
        <ele>604.744</ele>
        <time>2012-12-01T10:27:20Z</time>
      </trkpt>
      <trkpt lat="43.67333" lon="6.93095">
        <ele>608.226</ele>
        <time>2012-12-01T10:27:28Z</time>
      </trkpt>
      <trkpt lat="43.67333" lon="6.93097">
        <ele>611.638</ele>
        <time>2012-12-01T10:27:35Z</time>
      </trkpt>
      <trkpt lat="43.67337" lon="6.93085">
        <ele>610.736</ele>
        <time>2012-12-01T10:27:40Z</time>
      </trkpt>
      <trkpt lat="43.67344" lon="6.93071">
        <ele>609.165</ele>
        <time>2012-12-01T10:27:43Z</time>
      </trkpt>
      <trkpt lat="43.67346" lon="6.93039">
        <ele>605.332</ele>
        <time>2012-12-01T10:27:48Z</time>
      </trkpt>
      <trkpt lat="43.6733" lon="6.93025">
        <ele>603.702</ele>
        <time>2012-12-01T10:27:52Z</time>
      </trkpt>
      <trkpt lat="43.67309" lon="6.93022">
        <ele>601.012</ele>
        <time>2012-12-01T10:27:56Z</time>
      </trkpt>
      <trkpt lat="43.6729" lon="6.93033">
        <ele>597.971</ele>
        <time>2012-12-01T10:28:00Z</time>
      </trkpt>
      <trkpt lat="43.67285" lon="6.93035">
        <ele>597.561</ele>
        <time>2012-12-01T10:28:01Z</time>
      </trkpt>
      <trkpt lat="43.67263" lon="6.93046">
        <ele>595.373</ele>
        <time>2012-12-01T10:28:07Z</time>
      </trkpt>
      <trkpt lat="43.6725" lon="6.93054">
        <ele>593.502</ele>
        <time>2012-12-01T10:28:11Z</time>
      </trkpt>
      <trkpt lat="43.67235" lon="6.9306">
        <ele>591.183</ele>
        <time>2012-12-01T10:28:15Z</time>
      </trkpt>
      <trkpt lat="43.67231" lon="6.93076">
        <ele>587.781</ele>
        <time>2012-12-01T10:28:20Z</time>
      </trkpt>
      <trkpt lat="43.67231" lon="6.93095">
        <ele>582.654</ele>
        <time>2012-12-01T10:28:25Z</time>
      </trkpt>
      <trkpt lat="43.6722" lon="6.9311">
        <ele>579.129</ele>
        <time>2012-12-01T10:28:29Z</time>
      </trkpt>
      <trkpt lat="43.67216" lon="6.93114">
        <ele>578.429</ele>
        <time>2012-12-01T10:28:30Z</time>
      </trkpt>
      <trkpt lat="43.67198" lon="6.9312">
        <ele>574.879</ele>
        <time>2012-12-01T10:28:34Z</time>
      </trkpt>
      <trkpt lat="43.67185" lon="6.93128">
        <ele>573.23</ele>
        <time>2012-12-01T10:28:37Z</time>
      </trkpt>
      <trkpt lat="43.67166" lon="6.93143">
        <ele>571.772</ele>
        <time>2012-12-01T10:28:42Z</time>
      </trkpt>
      <trkpt lat="43.67153" lon="6.93151">
        <ele>570.501</ele>
        <time>2012-12-01T10:28:46Z</time>
      </trkpt>
      <trkpt lat="43.6715" lon="6.93152">
        <ele>569.59</ele>
        <time>2012-12-01T10:28:47Z</time>
      </trkpt>
      <trkpt lat="43.67133" lon="6.93162">
        <ele>567.091</ele>
        <time>2012-12-01T10:28:51Z</time>
      </trkpt>
      <trkpt lat="43.67113" lon="6.93165">
        <ele>565.061</ele>
        <time>2012-12-01T10:28:55Z</time>
      </trkpt>
      <trkpt lat="43.67103" lon="6.9317">
        <ele>564.462</ele>
        <time>2012-12-01T10:28:57Z</time>
      </trkpt>
      <trkpt lat="43.67094" lon="6.93177">
        <ele>563.812</ele>
        <time>2012-12-01T10:28:59Z</time>
      </trkpt>
      <trkpt lat="43.67087" lon="6.93195">
        <ele>562.233</ele>
        <time>2012-12-01T10:29:03Z</time>
      </trkpt>
      <trkpt lat="43.67084" lon="6.93219">
        <ele>562.364</ele>
        <time>2012-12-01T10:29:07Z</time>
      </trkpt>
      <trkpt lat="43.6707" lon="6.93226">
        <ele>561.353</ele>
        <time>2012-12-01T10:29:10Z</time>
      </trkpt>
      <trkpt lat="43.6706" lon="6.93225">
        <ele>559.832</ele>
        <time>2012-12-01T10:29:12Z</time>
      </trkpt>
      <trkpt lat="43.67054" lon="6.93223">
        <ele>559.134</ele>
        <time>2012-12-01T10:29:15Z</time>
      </trkpt>
      <trkpt lat="43.67052" lon="6.9321">
        <ele>558.136</ele>
        <time>2012-12-01T10:29:21Z</time>
      </trkpt>
      <trkpt lat="43.67051" lon="6.93199">
        <ele>559.217</ele>
        <time>2012-12-01T10:29:24Z</time>
      </trkpt>
      <trkpt lat="43.67042" lon="6.93196">
        <ele>559.676</ele>
        <time>2012-12-01T10:29:28Z</time>
      </trkpt>
      <trkpt lat="43.67033" lon="6.93205">
        <ele>559.946</ele>
        <time>2012-12-01T10:29:33Z</time>
      </trkpt>
      <trkpt lat="43.67032" lon="6.93207">
        <ele>560.887</ele>
        <time>2012-12-01T10:29:37Z</time>
      </trkpt>
      <trkpt lat="43.6703" lon="6.93207">
        <ele>561.197</ele>
        <time>2012-12-01T10:29:48Z</time>
      </trkpt>
      <trkpt lat="43.67023" lon="6.93211">
        <ele>561.048</ele>
        <time>2012-12-01T10:29:54Z</time>
      </trkpt>
      <trkpt lat="43.67023" lon="6.93212">
        <ele>561.637</ele>
        <time>2012-12-01T10:29:58Z</time>
      </trkpt>
      <trkpt lat="43.67027" lon="6.93212">
        <ele>559.565</ele>
        <time>2012-12-01T10:30:04Z</time>
      </trkpt>
      <trkpt lat="43.67028" lon="6.93213">
        <ele>558.326</ele>
        <time>2012-12-01T10:30:11Z</time>
      </trkpt>
      <trkpt lat="43.67028" lon="6.9321">
        <ele>572.995</ele>
        <time>2012-12-01T10:30:54Z</time>
      </trkpt>
      <trkpt lat="43.67022" lon="6.93216">
        <ele>567.873</ele>
        <time>2012-12-01T10:30:58Z</time>
      </trkpt>
      <trkpt lat="43.6701" lon="6.93226">
        <ele>563.053</ele>
        <time>2012-12-01T10:31:04Z</time>
      </trkpt>
      <trkpt lat="43.67001" lon="6.93234">
        <ele>562.225</ele>
        <time>2012-12-01T10:31:08Z</time>
      </trkpt>
      <trkpt lat="43.66987" lon="6.93248">
        <ele>560.945</ele>
        <time>2012-12-01T10:31:13Z</time>
      </trkpt>
      <trkpt lat="43.66984" lon="6.93245">
        <ele>556.973</ele>
        <time>2012-12-01T10:31:17Z</time>
      </trkpt>
      <trkpt lat="43.66982" lon="6.9324">
        <ele>555.793</ele>
        <time>2012-12-01T10:31:19Z</time>
      </trkpt>
      <trkpt lat="43.66968" lon="6.93238">
        <ele>550.211</ele>
        <time>2012-12-01T10:31:23Z</time>
      </trkpt>
      <trkpt lat="43.66964" lon="6.93239">
        <ele>549.451</ele>
        <time>2012-12-01T10:31:24Z</time>
      </trkpt>
      <trkpt lat="43.66944" lon="6.93236">
        <ele>546.802</ele>
        <time>2012-12-01T10:31:28Z</time>
      </trkpt>
      <trkpt lat="43.66931" lon="6.93232">
        <ele>544.633</ele>
        <time>2012-12-01T10:31:32Z</time>
      </trkpt>
      <trkpt lat="43.6692" lon="6.93234">
        <ele>542.514</ele>
        <time>2012-12-01T10:31:37Z</time>
      </trkpt>
      <trkpt lat="43.66906" lon="6.93235">
        <ele>543.507</ele>
        <time>2012-12-01T10:31:43Z</time>
      </trkpt>
      <trkpt lat="43.66891" lon="6.93231">
        <ele>544.968</ele>
        <time>2012-12-01T10:31:48Z</time>
      </trkpt>
      <trkpt lat="43.66884" lon="6.9323">
        <ele>545.238</ele>
        <time>2012-12-01T10:31:53Z</time>
      </trkpt>
      <trkpt lat="43.66875" lon="6.93225">
        <ele>542.755</ele>
        <time>2012-12-01T10:31:57Z</time>
      </trkpt>
      <trkpt lat="43.66863" lon="6.9322">
        <ele>539.633</ele>
        <time>2012-12-01T10:32:01Z</time>
      </trkpt>
      <trkpt lat="43.66858" lon="6.93214">
        <ele>535.864</ele>
        <time>2012-12-01T10:32:06Z</time>
      </trkpt>
      <trkpt lat="43.66849" lon="6.93206">
        <ele>537.466</ele>
        <time>2012-12-01T10:32:38Z</time>
      </trkpt>
      <trkpt lat="43.6684" lon="6.93199">
        <ele>536.518</ele>
        <time>2012-12-01T10:32:43Z</time>
      </trkpt>
      <trkpt lat="43.66832" lon="6.93192">
        <ele>534.674</ele>
        <time>2012-12-01T10:32:48Z</time>
      </trkpt>
      <trkpt lat="43.66829" lon="6.93189">
        <ele>528.693</ele>
        <time>2012-12-01T10:32:59Z</time>
      </trkpt>
      <trkpt lat="43.66824" lon="6.93185">
        <ele>526.844</ele>
        <time>2012-12-01T10:33:06Z</time>
      </trkpt>
      <trkpt lat="43.66818" lon="6.93184">
        <ele>524.894</ele>
        <time>2012-12-01T10:33:12Z</time>
      </trkpt>
      <trkpt lat="43.66815" lon="6.93183">
        <ele>522.923</ele>
        <time>2012-12-01T10:33:17Z</time>
      </trkpt>
      <trkpt lat="43.66812" lon="6.93183">
        <ele>520.423</ele>
        <time>2012-12-01T10:33:24Z</time>
      </trkpt>
      <trkpt lat="43.66808" lon="6.93183">
        <ele>517.741</ele>
        <time>2012-12-01T10:33:30Z</time>
      </trkpt>
      <trkpt lat="43.66804" lon="6.9318">
        <ele>516.212</ele>
        <time>2012-12-01T10:33:35Z</time>
      </trkpt>
      <trkpt lat="43.66796" lon="6.93166">
        <ele>514.823</ele>
        <time>2012-12-01T10:33:41Z</time>
      </trkpt>
      <trkpt lat="43.66795" lon="6.93166">
        <ele>514.503</ele>
        <time>2012-12-01T10:33:42Z</time>
      </trkpt>
      <trkpt lat="43.6679" lon="6.93174">
        <ele>509.28</ele>
        <time>2012-12-01T10:33:48Z</time>
      </trkpt>
      <trkpt lat="43.66788" lon="6.93177">
        <ele>508.801</ele>
        <time>2012-12-01T10:33:51Z</time>
      </trkpt>
      <trkpt lat="43.6678" lon="6.93177">
        <ele>507.884</ele>
        <time>2012-12-01T10:33:56Z</time>
      </trkpt>
      <trkpt lat="43.66777" lon="6.93178">
        <ele>505.734</ele>
        <time>2012-12-01T10:34:02Z</time>
      </trkpt>
      <trkpt lat="43.66775" lon="6.93178">
        <ele>505.014</ele>
        <time>2012-12-01T10:34:07Z</time>
      </trkpt>
      <trkpt lat="43.6677" lon="6.93178">
        <ele>502.924</ele>
        <time>2012-12-01T10:34:12Z</time>
      </trkpt>
      <trkpt lat="43.66764" lon="6.93176">
        <ele>501.064</ele>
        <time>2012-12-01T10:34:17Z</time>
      </trkpt>
      <trkpt lat="43.66762" lon="6.93179">
        <ele>501.094</ele>
        <time>2012-12-01T10:34:18Z</time>
      </trkpt>
      <trkpt lat="43.66758" lon="6.93182">
        <ele>498.885</ele>
        <time>2012-12-01T10:34:23Z</time>
      </trkpt>
      <trkpt lat="43.66761" lon="6.93177">
        <ele>505.387</ele>
        <time>2012-12-01T10:36:25Z</time>
      </trkpt>
      <trkpt lat="43.66765" lon="6.93175">
        <ele>503.706</ele>
        <time>2012-12-01T10:36:32Z</time>
      </trkpt>
      <trkpt lat="43.66764" lon="6.93172">
        <ele>506.367</ele>
        <time>2012-12-01T10:36:43Z</time>
      </trkpt>
      <trkpt lat="43.66766" lon="6.93169">
        <ele>505.656</ele>
        <time>2012-12-01T10:36:52Z</time>
      </trkpt>
      <trkpt lat="43.66764" lon="6.93168">
        <ele>497.164</ele>
        <time>2012-12-01T10:37:04Z</time>
      </trkpt>
      <trkpt lat="43.66767" lon="6.93156">
        <ele>497.977</ele>
        <time>2012-12-01T10:37:10Z</time>
      </trkpt>
      <trkpt lat="43.66769" lon="6.93148">
        <ele>498.227</ele>
        <time>2012-12-01T10:37:13Z</time>
      </trkpt>
      <trkpt lat="43.66775" lon="6.93128">
        <ele>498.998</ele>
        <time>2012-12-01T10:37:19Z</time>
      </trkpt>
      <trkpt lat="43.66775" lon="6.93107">
        <ele>504.189</ele>
        <time>2012-12-01T10:37:26Z</time>
      </trkpt>
      <trkpt lat="43.66771" lon="6.93085">
        <ele>506.009</ele>
        <time>2012-12-01T10:37:34Z</time>
      </trkpt>
      <trkpt lat="43.66765" lon="6.93061">
        <ele>512.592</ele>
        <time>2012-12-01T10:37:42Z</time>
      </trkpt>
      <trkpt lat="43.66761" lon="6.93036">
        <ele>517.481</ele>
        <time>2012-12-01T10:37:51Z</time>
      </trkpt>
      <trkpt lat="43.66758" lon="6.9301">
        <ele>521.001</ele>
        <time>2012-12-01T10:37:59Z</time>
      </trkpt>
      <trkpt lat="43.66758" lon="6.92991">
        <ele>520.257</ele>
        <time>2012-12-01T10:38:06Z</time>
      </trkpt>
      <trkpt lat="43.66758" lon="6.92969">
        <ele>519.266</ele>
        <time>2012-12-01T10:38:13Z</time>
      </trkpt>
      <trkpt lat="43.66756" lon="6.92948">
        <ele>520.386</ele>
        <time>2012-12-01T10:38:20Z</time>
      </trkpt>
      <trkpt lat="43.66757" lon="6.92918">
        <ele>518.654</ele>
        <time>2012-12-01T10:38:29Z</time>
      </trkpt>
      <trkpt lat="43.66764" lon="6.92888">
        <ele>520.657</ele>
        <time>2012-12-01T10:38:38Z</time>
      </trkpt>
      <trkpt lat="43.66773" lon="6.92875">
        <ele>519.137</ele>
        <time>2012-12-01T10:38:43Z</time>
      </trkpt>
      <trkpt lat="43.66782" lon="6.92856">
        <ele>520.288</ele>
        <time>2012-12-01T10:38:48Z</time>
      </trkpt>
      <trkpt lat="43.668" lon="6.92828">
        <ele>520.658</ele>
        <time>2012-12-01T10:38:57Z</time>
      </trkpt>
      <trkpt lat="43.66816" lon="6.92803">
        <ele>520.958</ele>
        <time>2012-12-01T10:39:04Z</time>
      </trkpt>
      <trkpt lat="43.66836" lon="6.92773">
        <ele>522.357</ele>
        <time>2012-12-01T10:39:12Z</time>
      </trkpt>
      <trkpt lat="43.66853" lon="6.92739">
        <ele>522.677</ele>
        <time>2012-12-01T10:39:19Z</time>
      </trkpt>
      <trkpt lat="43.66859" lon="6.92723">
        <ele>522.085</ele>
        <time>2012-12-01T10:39:22Z</time>
      </trkpt>
      <trkpt lat="43.66862" lon="6.92705">
        <ele>522.205</ele>
        <time>2012-12-01T10:39:25Z</time>
      </trkpt>
      <trkpt lat="43.66863" lon="6.92661">
        <ele>523.496</ele>
        <time>2012-12-01T10:39:33Z</time>
      </trkpt>
      <trkpt lat="43.66855" lon="6.92622">
        <ele>527.679</ele>
        <time>2012-12-01T10:39:40Z</time>
      </trkpt>
      <trkpt lat="43.66848" lon="6.92592">
        <ele>531.098</ele>
        <time>2012-12-01T10:39:46Z</time>
      </trkpt>
      <trkpt lat="43.66844" lon="6.92573">
        <ele>530.127</ele>
        <time>2012-12-01T10:39:50Z</time>
      </trkpt>
      <trkpt lat="43.6685" lon="6.92542">
        <ele>529.287</ele>
        <time>2012-12-01T10:39:56Z</time>
      </trkpt>
      <trkpt lat="43.66849" lon="6.92515">
        <ele>529.285</ele>
        <time>2012-12-01T10:40:01Z</time>
      </trkpt>
      <trkpt lat="43.66844" lon="6.92483">
        <ele>527.806</ele>
        <time>2012-12-01T10:40:07Z</time>
      </trkpt>
      <trkpt lat="43.66831" lon="6.92464">
        <ele>528.336</ele>
        <time>2012-12-01T10:40:11Z</time>
      </trkpt>
      <trkpt lat="43.66829" lon="6.92459">
        <ele>528.806</ele>
        <time>2012-12-01T10:40:12Z</time>
      </trkpt>
      <trkpt lat="43.66819" lon="6.92419">
        <ele>530.977</ele>
        <time>2012-12-01T10:40:20Z</time>
      </trkpt>
      <trkpt lat="43.66817" lon="6.92393">
        <ele>533.88</ele>
        <time>2012-12-01T10:40:26Z</time>
      </trkpt>
      <trkpt lat="43.66814" lon="6.92371">
        <ele>535.197</ele>
        <time>2012-12-01T10:40:31Z</time>
      </trkpt>
      <trkpt lat="43.66811" lon="6.92347">
        <ele>537.336</ele>
        <time>2012-12-01T10:40:36Z</time>
      </trkpt>
      <trkpt lat="43.66802" lon="6.92303">
        <ele>538.346</ele>
        <time>2012-12-01T10:40:46Z</time>
      </trkpt>
      <trkpt lat="43.66788" lon="6.92263">
        <ele>540.484</ele>
        <time>2012-12-01T10:40:56Z</time>
      </trkpt>
      <trkpt lat="43.66774" lon="6.92225">
        <ele>541.626</ele>
        <time>2012-12-01T10:41:05Z</time>
      </trkpt>
      <trkpt lat="43.66763" lon="6.92193">
        <ele>543.146</ele>
        <time>2012-12-01T10:41:13Z</time>
      </trkpt>
      <trkpt lat="43.66762" lon="6.92193">
        <ele>542.885</ele>
        <time>2012-12-01T10:41:18Z</time>
      </trkpt>
      <trkpt lat="43.6676" lon="6.92183">
        <ele>543.115</ele>
        <time>2012-12-01T10:41:23Z</time>
      </trkpt>
      <trkpt lat="43.66754" lon="6.9217">
        <ele>545.184</ele>
        <time>2012-12-01T10:41:26Z</time>
      </trkpt>
      <trkpt lat="43.66758" lon="6.9216">
        <ele>546.505</ele>
        <time>2012-12-01T10:41:29Z</time>
      </trkpt>
      <trkpt lat="43.66764" lon="6.92169">
        <ele>547.937</ele>
        <time>2012-12-01T10:41:32Z</time>
      </trkpt>
      <trkpt lat="43.66772" lon="6.9219">
        <ele>550.125</ele>
        <time>2012-12-01T10:41:39Z</time>
      </trkpt>
      <trkpt lat="43.66786" lon="6.92216">
        <ele>552.855</ele>
        <time>2012-12-01T10:41:48Z</time>
      </trkpt>
      <trkpt lat="43.66795" lon="6.92233">
        <ele>553.344</ele>
        <time>2012-12-01T10:41:55Z</time>
      </trkpt>
      <trkpt lat="43.66798" lon="6.92238">
        <ele>553.124</ele>
        <time>2012-12-01T10:42:00Z</time>
      </trkpt>
      <trkpt lat="43.66799" lon="6.92238">
        <ele>551.804</ele>
        <time>2012-12-01T10:42:05Z</time>
      </trkpt>
      <trkpt lat="43.668" lon="6.92238">
        <ele>551.343</ele>
        <time>2012-12-01T10:42:06Z</time>
      </trkpt>
      <trkpt lat="43.66802" lon="6.92237">
        <ele>548.003</ele>
        <time>2012-12-01T10:42:13Z</time>
      </trkpt>
      <trkpt lat="43.66806" lon="6.92239">
        <ele>542.686</ele>
        <time>2012-12-01T10:43:22Z</time>
      </trkpt>
    </trkseg>
  </trk>
</gpx>